Time,TemperatureF,DewpointF,PressureIn,WindDirection,WindDirectionDegrees,WindSpeedMPH,WindSpeedGustMPH,Humidity,HourlyPrecipIn,Conditions,Clouds,dailyrainin,SoftwareType,DateUTC
2013-05-02 00:01:00,68.0,67.6,29.99,East,90,1.0,2.0,99,0.00,,,1.29,meteohub,2013-05-02 04:01:00,
2013-05-02 00:02:00,68.0,67.6,29.99,NE,45,2.0,2.0,99,0.00,,,1.29,meteohub,2013-05-02 04:02:00,
2013-05-02 00:03:00,68.0,67.6,29.99,East,90,2.0,2.0,99,0.00,,,1.29,meteohub,2013-05-02 04:03:00,
2013-05-02 00:04:00,68.0,67.6,29.99,East,90,4.0,4.0,99,0.00,,,1.29,meteohub,2013-05-02 04:04:00,
2013-05-02 00:05:00,68.0,67.6,29.99,East,90,3.0,3.0,99,0.00,,,0.00,meteohub,2013-05-02 04:05:00,
2013-05-02 00:07:00,68.2,67.8,30.00,East,90,1.0,2.0,99,0.00,,,0.00,meteohub,2013-05-02 04:07:00,
2013-05-02 00:09:00,68.2,67.8,30.00,East,90,2.0,2.0,99,0.00,,,0.00,meteohub,2013-05-02 04:09:00,
2013-05-02 00:10:00,68.2,67.8,29.99,East,90,2.0,4.0,99,0.00,,,0.00,meteohub,2013-05-02 04:10:00,
2013-05-02 00:11:00,68.2,67.8,30.00,NE,45,2.0,4.0,99,0.00,,,0.00,meteohub,2013-05-02 04:11:00,
2013-05-02 00:13:00,68.2,67.8,29.99,NE,45,2.0,4.0,99,0.00,,,0.00,meteohub,2013-05-02 04:13:00,
2013-05-02 00:15:00,68.2,67.8,29.99,SE,135,2.0,4.0,99,0.00,,,0.00,meteohub,2013-05-02 04:15:00,
2013-05-02 00:17:00,68.2,67.8,29.99,NW,315,3.0,4.0,99,0.00,,,0.00,meteohub,2013-05-02 04:17:00,
2013-05-02 00:18:00,68.2,67.8,29.99,SE,135,4.0,4.0,99,0.00,,,0.00,meteohub,2013-05-02 04:18:00,
2013-05-02 00:19:00,68.2,67.8,29.99,East,90,2.0,4.0,99,0.00,,,0.00,meteohub,2013-05-02 04:19:00,
2013-05-02 00:20:00,68.2,67.8,29.99,NE,45,2.0,4.0,99,0.00,,,0.05,meteohub,2013-05-02 04:20:00,
2013-05-02 00:21:00,68.2,67.8,29.99,NE,45,1.0,4.0,99,0.05,,,0.05,meteohub,2013-05-02 04:21:00,
2013-05-02 00:22:00,68.2,67.8,29.99,NE,45,1.0,4.0,99,0.05,,,0.05,meteohub,2013-05-02 04:22:00,
2013-05-02 00:25:00,68.2,67.8,29.99,NE,45,2.0,4.0,99,0.05,,,0.05,meteohub,2013-05-02 04:25:00,
2013-05-02 00:27:00,68.4,68.0,29.99,NE,45,1.0,4.0,99,0.05,,,0.05,meteohub,2013-05-02 04:27:00,
2013-05-02 00:28:00,68.4,68.0,29.99,NE,45,2.0,4.0,99,0.05,,,0.05,meteohub,2013-05-02 04:28:00,
2013-05-02 00:29:00,68.2,67.8,29.99,East,90,1.0,4.0,99,0.05,,,0.05,meteohub,2013-05-02 04:29:00,
2013-05-02 00:30:00,68.4,68.0,29.99,East,90,1.0,4.0,99,0.05,,,0.05,meteohub,2013-05-02 04:30:00,
2013-05-02 00:31:00,68.4,68.0,29.99,East,90,2.0,4.0,99,0.05,,,0.05,meteohub,2013-05-02 04:31:00,
2013-05-02 00:32:00,68.4,68.0,29.99,East,90,2.0,4.0,99,0.05,,,0.05,meteohub,2013-05-02 04:32:00,
2013-05-02 00:34:00,68.4,68.0,29.99,East,90,2.0,4.0,99,0.05,,,0.05,meteohub,2013-05-02 04:34:00,
2013-05-02 00:36:00,68.4,68.0,29.99,SE,135,4.0,4.0,99,0.05,,,0.05,meteohub,2013-05-02 04:36:00,
2013-05-02 00:37:00,68.4,68.0,29.99,NE,45,3.0,4.0,99,0.05,,,0.05,meteohub,2013-05-02 04:37:00,
2013-05-02 00:38:00,68.4,68.0,29.99,NE,45,3.0,4.0,99,0.05,,,0.05,meteohub,2013-05-02 04:38:00,
2013-05-02 00:39:00,68.4,68.0,29.99,North,0,3.0,4.0,99,0.05,,,0.05,meteohub,2013-05-02 04:39:00,
2013-05-02 00:42:00,68.2,67.8,29.99,SE,135,2.0,4.0,99,0.05,,,0.05,meteohub,2013-05-02 04:42:00,
2013-05-02 00:44:00,68.4,68.0,29.99,SE,135,2.0,4.0,99,0.05,,,0.05,meteohub,2013-05-02 04:44:00,
2013-05-02 00:46:00,68.4,68.0,29.99,East,90,2.0,4.0,99,0.06,,,0.06,meteohub,2013-05-02 04:46:00,
2013-05-02 00:47:00,68.4,68.0,29.99,NE,45,2.0,4.0,99,0.06,,,0.06,meteohub,2013-05-02 04:47:00,
2013-05-02 00:49:00,68.4,68.0,29.98,NE,45,1.0,4.0,99,0.06,,,0.06,meteohub,2013-05-02 04:49:00,
2013-05-02 00:50:00,68.4,68.0,29.98,NE,45,1.0,4.0,99,0.07,,,0.07,meteohub,2013-05-02 04:50:00,
2013-05-02 00:51:00,68.4,68.0,29.99,East,90,2.0,4.0,99,0.07,,,0.07,meteohub,2013-05-02 04:51:00,
2013-05-02 00:55:00,68.4,68.0,29.99,NE,45,3.0,4.0,99,0.07,,,0.07,meteohub,2013-05-02 04:55:00,
2013-05-02 00:56:00,68.4,68.0,29.99,NE,45,0.0,4.0,99,0.07,,,0.07,meteohub,2013-05-02 04:56:00,
2013-05-02 00:57:00,68.4,68.0,29.99,NE,45,1.0,4.0,99,0.07,,,0.07,meteohub,2013-05-02 04:57:00,
2013-05-02 00:58:00,68.4,68.0,29.99,NE,45,0.0,4.0,99,0.07,,,0.07,meteohub,2013-05-02 04:58:00,
2013-05-02 01:02:00,68.4,68.0,29.98,NE,45,0.0,4.0,99,0.07,,,0.07,meteohub,2013-05-02 05:02:00,
2013-05-02 01:03:00,68.4,68.0,29.99,North,0,1.0,4.0,99,0.07,,,0.07,meteohub,2013-05-02 05:03:00,
2013-05-02 01:05:00,68.4,68.0,29.98,NE,45,1.0,4.0,99,0.07,,,0.07,meteohub,2013-05-02 05:05:00,
2013-05-02 01:07:00,68.4,68.0,29.99,NE,45,2.0,4.0,99,0.07,,,0.07,meteohub,2013-05-02 05:07:00,
2013-05-02 01:10:00,68.4,68.0,29.98,NE,45,1.0,4.0,99,0.07,,,0.07,meteohub,2013-05-02 05:10:00,
2013-05-02 01:11:00,68.4,68.0,29.99,NE,45,0.0,3.0,99,0.07,,,0.07,meteohub,2013-05-02 05:11:00,
2013-05-02 01:12:00,68.4,68.0,29.98,NE,45,2.0,3.0,99,0.07,,,0.07,meteohub,2013-05-02 05:12:00,
2013-05-02 01:15:00,68.4,68.0,29.98,North,0,1.0,2.0,99,0.07,,,0.07,meteohub,2013-05-02 05:15:00,
2013-05-02 01:16:00,68.4,68.0,29.98,North,0,1.0,2.0,99,0.07,,,0.07,meteohub,2013-05-02 05:16:00,
2013-05-02 01:17:00,68.4,68.0,29.99,NE,45,0.0,2.0,99,0.07,,,0.07,meteohub,2013-05-02 05:17:00,
2013-05-02 01:18:00,68.4,68.0,29.98,NE,45,0.0,2.0,99,0.07,,,0.07,meteohub,2013-05-02 05:18:00,
2013-05-02 01:20:00,68.4,68.0,29.98,NE,45,1.0,2.0,99,0.13,,,0.18,meteohub,2013-05-02 05:20:00,
2013-05-02 01:22:00,68.4,68.0,29.98,East,90,1.0,2.0,99,0.13,,,0.18,meteohub,2013-05-02 05:22:00,
2013-05-02 01:23:00,68.5,68.2,29.98,South,180,0.0,2.0,99,0.13,,,0.18,meteohub,2013-05-02 05:23:00,
2013-05-02 01:26:00,68.5,68.2,29.98,SE,135,0.0,2.0,99,0.20,,,0.25,meteohub,2013-05-02 05:26:00,
2013-05-02 01:27:00,68.5,68.2,29.98,SE,135,0.0,2.0,99,0.20,,,0.25,meteohub,2013-05-02 05:27:00,
2013-05-02 01:29:00,68.5,68.2,29.98,East,90,2.0,2.0,99,0.20,,,0.25,meteohub,2013-05-02 05:29:00,
2013-05-02 01:30:00,68.5,68.2,29.98,East,90,1.0,2.0,99,1.71,,,1.76,meteohub,2013-05-02 05:30:00,
2013-05-02 01:32:00,68.5,68.2,29.98,East,90,1.0,2.0,99,1.71,,,1.76,meteohub,2013-05-02 05:32:00,
2013-05-02 01:34:00,68.5,68.2,29.98,East,90,2.0,2.0,99,1.71,,,1.76,meteohub,2013-05-02 05:34:00,
2013-05-02 01:36:00,68.5,68.2,29.98,North,0,2.0,2.0,99,1.75,,,1.80,meteohub,2013-05-02 05:36:00,
2013-05-02 01:37:00,68.5,68.2,29.98,East,90,3.0,3.0,99,1.75,,,1.80,meteohub,2013-05-02 05:37:00,
2013-05-02 01:40:00,68.5,68.2,29.98,NE,45,2.0,2.0,99,1.75,,,1.80,meteohub,2013-05-02 05:40:00,
2013-05-02 01:41:00,68.5,68.2,29.97,NE,45,1.0,3.0,99,1.75,,,1.80,meteohub,2013-05-02 05:41:00,
2013-05-02 01:43:00,68.5,68.2,29.98,East,90,2.0,3.0,99,1.75,,,1.80,meteohub,2013-05-02 05:43:00,
2013-05-02 01:46:00,68.7,68.4,29.98,NE,45,2.0,3.0,99,1.75,,,1.81,meteohub,2013-05-02 05:46:00,
2013-05-02 01:47:00,68.7,68.4,29.98,NE,45,2.0,3.0,99,1.75,,,1.81,meteohub,2013-05-02 05:47:00,
2013-05-02 01:48:00,68.7,68.4,29.98,North,0,2.0,3.0,99,1.75,,,1.81,meteohub,2013-05-02 05:48:00,
2013-05-02 01:49:00,68.7,68.4,29.98,North,0,2.0,3.0,99,1.75,,,1.81,meteohub,2013-05-02 05:49:00,
2013-05-02 01:51:00,68.7,68.4,29.98,East,90,1.0,3.0,99,1.78,,,1.85,meteohub,2013-05-02 05:51:00,
2013-05-02 01:52:00,68.7,68.4,29.98,East,90,1.0,3.0,99,1.78,,,1.85,meteohub,2013-05-02 05:52:00,
2013-05-02 01:53:00,68.7,68.4,29.97,East,90,5.0,5.0,99,1.78,,,1.85,meteohub,2013-05-02 05:53:00,
2013-05-02 01:56:00,68.5,68.2,29.97,NE,45,1.0,5.0,99,1.87,,,1.94,meteohub,2013-05-02 05:56:00,
2013-05-02 01:57:00,68.5,68.2,29.96,NE,45,1.0,5.0,99,1.87,,,1.94,meteohub,2013-05-02 05:57:00,
2013-05-02 02:00:00,68.5,68.2,29.96,NE,45,1.0,5.0,99,1.87,,,1.94,meteohub,2013-05-02 06:00:00,
2013-05-02 02:03:00,68.5,68.2,29.96,East,90,4.0,5.0,99,1.88,,,1.95,meteohub,2013-05-02 06:03:00,
2013-05-02 02:05:00,68.5,68.2,29.97,NE,45,2.0,5.0,99,1.93,,,2.00,meteohub,2013-05-02 06:05:00,
2013-05-02 02:06:00,68.5,68.2,29.97,East,90,4.0,5.0,99,1.93,,,2.00,meteohub,2013-05-02 06:06:00,
2013-05-02 02:07:00,68.5,68.2,29.97,East,90,2.0,5.0,99,1.93,,,2.00,meteohub,2013-05-02 06:07:00,
2013-05-02 02:10:00,68.5,68.2,29.97,NE,45,2.0,4.0,99,1.93,,,2.00,meteohub,2013-05-02 06:10:00,
2013-05-02 02:11:00,68.5,68.2,29.97,NE,45,2.0,4.0,99,1.93,,,2.00,meteohub,2013-05-02 06:11:00,
2013-05-02 02:12:00,68.5,68.2,29.96,NE,45,2.0,4.0,99,1.93,,,2.00,meteohub,2013-05-02 06:12:00,
2013-05-02 02:14:00,68.5,68.2,29.96,East,90,2.0,4.0,99,1.93,,,2.00,meteohub,2013-05-02 06:14:00,
2013-05-02 02:17:00,68.5,68.2,29.96,NE,45,2.0,4.0,99,1.93,,,2.00,meteohub,2013-05-02 06:17:00,
2013-05-02 02:19:00,68.5,68.2,29.96,East,90,2.0,4.0,99,1.93,,,2.00,meteohub,2013-05-02 06:19:00,
2013-05-02 02:21:00,68.5,68.2,29.96,East,90,3.0,4.0,99,1.76,,,2.00,meteohub,2013-05-02 06:21:00,
2013-05-02 02:22:00,68.5,68.2,29.96,NE,45,2.0,4.0,99,1.76,,,2.00,meteohub,2013-05-02 06:22:00,
2013-05-02 02:23:00,68.5,68.2,29.96,SE,135,2.0,4.0,99,1.76,,,2.00,meteohub,2013-05-02 06:23:00,
2013-05-02 02:26:00,68.5,68.2,29.96,North,0,1.0,3.0,99,1.75,,,2.00,meteohub,2013-05-02 06:26:00,
2013-05-02 02:27:00,68.5,68.2,29.96,SE,135,3.0,3.0,99,1.75,,,2.00,meteohub,2013-05-02 06:27:00,
2013-05-02 02:29:00,68.5,68.2,29.96,NE,45,2.0,3.0,99,1.75,,,2.00,meteohub,2013-05-02 06:29:00,
2013-05-02 02:30:00,68.5,68.2,29.96,North,0,2.0,3.0,99,1.75,,,2.00,meteohub,2013-05-02 06:30:00,
2013-05-02 02:33:00,68.7,68.4,29.96,NE,45,2.0,3.0,99,0.20,,,2.00,meteohub,2013-05-02 06:33:00,
2013-05-02 02:34:00,68.7,68.4,29.96,NE,45,2.0,3.0,99,0.20,,,2.00,meteohub,2013-05-02 06:34:00,
2013-05-02 02:35:00,68.7,68.4,29.96,East,90,2.0,3.0,99,0.20,,,2.00,meteohub,2013-05-02 06:35:00,
2013-05-02 02:36:00,68.7,68.4,29.96,East,90,2.0,3.0,99,0.20,,,2.00,meteohub,2013-05-02 06:36:00,
2013-05-02 02:37:00,68.7,68.4,29.95,North,0,3.0,3.0,99,0.20,,,2.00,meteohub,2013-05-02 06:37:00,
2013-05-02 02:38:00,68.7,68.4,29.96,North,0,1.0,3.0,99,0.20,,,2.00,meteohub,2013-05-02 06:38:00,
2013-05-02 02:41:00,68.7,68.4,29.95,NW,315,2.0,4.0,99,0.20,,,2.00,meteohub,2013-05-02 06:41:00,
2013-05-02 02:42:00,68.7,68.4,29.95,NE,45,2.0,4.0,99,0.20,,,2.00,meteohub,2013-05-02 06:42:00,
2013-05-02 02:43:00,68.7,68.4,29.95,North,0,3.0,4.0,99,0.20,,,2.00,meteohub,2013-05-02 06:43:00,
2013-05-02 02:47:00,68.5,68.2,29.95,NE,45,3.0,4.0,99,0.19,,,2.00,meteohub,2013-05-02 06:47:00,
2013-05-02 02:48:00,68.5,68.2,29.95,North,0,3.0,4.0,99,0.19,,,2.00,meteohub,2013-05-02 06:48:00,
2013-05-02 02:49:00,68.5,68.2,29.95,East,90,2.0,4.0,99,0.19,,,2.00,meteohub,2013-05-02 06:49:00,
2013-05-02 02:52:00,68.4,68.0,29.96,SE,135,3.0,5.0,99,0.18,,,2.03,meteohub,2013-05-02 06:52:00,
2013-05-02 02:53:00,68.4,68.0,29.95,NE,45,2.0,5.0,99,0.18,,,2.03,meteohub,2013-05-02 06:53:00,
2013-05-02 02:55:00,68.4,68.0,29.95,NE,45,2.0,5.0,99,0.18,,,2.03,meteohub,2013-05-02 06:55:00,
2013-05-02 02:56:00,68.4,68.0,29.95,East,90,2.0,5.0,99,0.35,,,2.30,meteohub,2013-05-02 06:56:00,
2013-05-02 02:57:00,68.4,68.0,29.95,NE,45,2.0,5.0,99,0.35,,,2.30,meteohub,2013-05-02 06:57:00,
2013-05-02 02:58:00,68.4,68.0,29.94,NE,45,2.0,5.0,99,0.35,,,2.30,meteohub,2013-05-02 06:58:00,
2013-05-02 03:00:00,68.2,67.8,29.94,East,90,3.0,5.0,99,0.35,,,2.30,meteohub,2013-05-02 07:00:00,
2013-05-02 03:01:00,68.2,67.8,29.94,East,90,2.0,5.0,99,0.35,,,2.30,meteohub,2013-05-02 07:01:00,
2013-05-02 03:02:00,68.2,67.8,29.94,East,90,2.0,5.0,99,0.35,,,2.30,meteohub,2013-05-02 07:02:00,
2013-05-02 03:05:00,68.2,67.8,29.94,East,90,2.0,3.0,99,0.31,,,2.30,meteohub,2013-05-02 07:05:00,
2013-05-02 03:07:00,68.2,67.8,29.94,SE,135,2.0,3.0,99,0.31,,,2.30,meteohub,2013-05-02 07:07:00,
2013-05-02 03:09:00,68.0,67.6,29.94,NE,45,2.0,3.0,99,0.31,,,2.30,meteohub,2013-05-02 07:09:00,
2013-05-02 03:10:00,68.0,67.6,29.93,East,90,2.0,3.0,99,0.64,,,2.63,meteohub,2013-05-02 07:10:00,
2013-05-02 03:11:00,68.0,67.6,29.93,NE,45,2.0,3.0,99,0.64,,,2.63,meteohub,2013-05-02 07:11:00,
2013-05-02 03:13:00,68.0,67.6,29.94,NE,45,1.0,3.0,99,0.64,,,2.63,meteohub,2013-05-02 07:13:00,
2013-05-02 03:14:00,68.0,67.6,29.94,NE,45,2.0,3.0,99,0.64,,,2.63,meteohub,2013-05-02 07:14:00,
2013-05-02 03:16:00,68.0,67.6,29.94,East,90,1.0,3.0,99,0.64,,,2.63,meteohub,2013-05-02 07:16:00,
2013-05-02 03:17:00,68.0,67.6,29.94,East,90,1.0,3.0,99,0.64,,,2.63,meteohub,2013-05-02 07:17:00,
2013-05-02 03:18:00,67.8,67.5,29.94,NE,45,2.0,3.0,99,0.64,,,2.63,meteohub,2013-05-02 07:18:00,
2013-05-02 03:19:00,67.8,67.5,29.94,North,0,2.0,3.0,99,0.64,,,2.63,meteohub,2013-05-02 07:19:00,
2013-05-02 03:20:00,67.8,67.5,29.94,NE,45,1.0,6.0,99,0.64,,,2.63,meteohub,2013-05-02 07:20:00,
2013-05-02 03:21:00,67.8,67.5,29.94,NE,45,2.0,6.0,99,0.64,,,2.63,meteohub,2013-05-02 07:21:00,
2013-05-02 03:23:00,67.8,67.5,29.94,SW,225,3.0,6.0,99,0.64,,,2.63,meteohub,2013-05-02 07:23:00,
2013-05-02 03:25:00,67.8,67.5,29.94,East,90,2.0,6.0,99,0.64,,,2.63,meteohub,2013-05-02 07:25:00,
2013-05-02 03:26:00,67.8,67.5,29.94,East,90,2.0,6.0,99,0.64,,,2.63,meteohub,2013-05-02 07:26:00,
2013-05-02 03:27:00,67.8,67.5,29.94,NE,45,2.0,6.0,99,0.64,,,2.63,meteohub,2013-05-02 07:27:00,
2013-05-02 03:29:00,67.8,67.5,29.94,North,0,2.0,6.0,99,0.64,,,2.63,meteohub,2013-05-02 07:29:00,
2013-05-02 03:31:00,67.6,67.3,29.94,SE,135,2.0,6.0,99,0.65,,,2.65,meteohub,2013-05-02 07:31:00,
2013-05-02 03:32:00,67.6,67.3,29.94,North,0,2.0,6.0,99,0.65,,,2.65,meteohub,2013-05-02 07:32:00,
2013-05-02 03:34:00,67.6,67.3,29.94,North,0,2.0,6.0,99,0.65,,,2.65,meteohub,2013-05-02 07:34:00,
2013-05-02 03:35:00,67.6,67.3,29.94,NE,45,2.0,3.0,99,0.65,,,2.65,meteohub,2013-05-02 07:35:00,
2013-05-02 03:36:00,67.6,67.3,29.94,North,0,2.0,3.0,99,0.65,,,2.65,meteohub,2013-05-02 07:36:00,
2013-05-02 03:37:00,67.6,67.3,29.94,NE,45,2.0,3.0,99,0.65,,,2.65,meteohub,2013-05-02 07:37:00,
2013-05-02 03:38:00,67.6,67.3,29.94,NE,45,3.0,3.0,99,0.65,,,2.65,meteohub,2013-05-02 07:38:00,
2013-05-02 03:40:00,67.6,67.3,29.94,East,90,1.0,3.0,99,0.65,,,2.65,meteohub,2013-05-02 07:40:00,
2013-05-02 03:42:00,67.6,67.3,29.94,East,90,2.0,3.0,99,0.65,,,2.65,meteohub,2013-05-02 07:42:00,
2013-05-02 03:43:00,67.6,67.3,29.94,North,0,3.0,3.0,99,0.65,,,2.65,meteohub,2013-05-02 07:43:00,
2013-05-02 03:44:00,67.6,67.3,29.94,North,0,3.0,3.0,99,0.65,,,2.65,meteohub,2013-05-02 07:44:00,
2013-05-02 03:47:00,67.5,67.1,29.94,NE,45,2.0,3.0,99,0.61,,,2.65,meteohub,2013-05-02 07:47:00,
2013-05-02 03:48:00,67.5,67.1,29.94,East,90,2.0,3.0,99,0.61,,,2.65,meteohub,2013-05-02 07:48:00,
2013-05-02 03:49:00,67.5,67.1,29.94,NE,45,2.0,3.0,99,0.61,,,2.65,meteohub,2013-05-02 07:49:00,
2013-05-02 03:53:00,67.5,67.1,29.93,NE,45,4.0,4.0,99,0.58,,,2.65,meteohub,2013-05-02 07:53:00,
2013-05-02 03:54:00,67.5,67.1,29.93,NE,45,2.0,4.0,99,0.58,,,2.65,meteohub,2013-05-02 07:54:00,
2013-05-02 03:56:00,67.5,67.1,29.93,SE,135,2.0,4.0,99,0.34,,,2.65,meteohub,2013-05-02 07:56:00,
2013-05-02 03:57:00,67.5,67.1,29.94,NE,45,2.0,4.0,99,0.34,,,2.65,meteohub,2013-05-02 07:57:00,
2013-05-02 03:59:00,67.5,67.1,29.94,North,0,3.0,4.0,99,0.34,,,2.65,meteohub,2013-05-02 07:59:00,
2013-05-02 04:02:00,67.5,67.1,29.94,NE,45,2.0,4.0,99,0.34,,,2.65,meteohub,2013-05-02 08:02:00,
2013-05-02 04:04:00,67.5,67.1,29.94,East,90,3.0,4.0,99,0.34,,,2.65,meteohub,2013-05-02 08:04:00,
2013-05-02 04:05:00,67.5,67.1,29.93,North,0,2.0,4.0,99,0.34,,,2.65,meteohub,2013-05-02 08:05:00,
2013-05-02 04:07:00,67.5,67.1,29.94,NE,45,2.0,4.0,99,0.34,,,2.65,meteohub,2013-05-02 08:07:00,
2013-05-02 04:09:00,67.5,67.1,29.94,East,90,2.0,4.0,99,0.34,,,2.65,meteohub,2013-05-02 08:09:00,
2013-05-02 04:10:00,67.5,67.1,29.94,NE,45,2.0,3.0,99,0.01,,,2.65,meteohub,2013-05-02 08:10:00,
2013-05-02 04:12:00,67.5,67.1,29.94,NE,45,2.0,3.0,99,0.01,,,2.65,meteohub,2013-05-02 08:12:00,
2013-05-02 04:14:00,67.5,67.1,29.93,NE,45,2.0,3.0,99,0.01,,,2.65,meteohub,2013-05-02 08:14:00,
2013-05-02 04:15:00,67.5,67.1,29.93,NE,45,2.0,3.0,99,0.01,,,2.65,meteohub,2013-05-02 08:15:00,
2013-05-02 04:16:00,67.5,67.1,29.93,NE,45,1.0,3.0,99,0.01,,,2.65,meteohub,2013-05-02 08:16:00,
2013-05-02 04:17:00,67.5,67.1,29.93,East,90,1.0,3.0,99,0.01,,,2.65,meteohub,2013-05-02 08:17:00,
2013-05-02 04:22:00,67.5,67.1,29.94,North,0,2.0,2.0,99,0.01,,,2.65,meteohub,2013-05-02 08:22:00,
2013-05-02 04:23:00,67.5,67.1,29.94,NE,45,2.0,2.0,99,0.01,,,2.65,meteohub,2013-05-02 08:23:00,
2013-05-02 04:25:00,67.5,67.1,29.93,South,180,2.0,2.0,99,0.01,,,2.65,meteohub,2013-05-02 08:25:00,
2013-05-02 04:27:00,67.5,67.1,29.93,NE,45,3.0,3.0,99,0.01,,,2.65,meteohub,2013-05-02 08:27:00,
2013-05-02 04:28:00,67.5,67.1,29.93,East,90,3.0,3.0,99,0.01,,,2.65,meteohub,2013-05-02 08:28:00,
2013-05-02 04:31:00,67.6,67.3,29.93,NE,45,2.0,4.0,99,0.00,,,2.65,meteohub,2013-05-02 08:31:00,
2013-05-02 04:32:00,67.6,67.3,29.93,NE,45,2.0,4.0,99,0.00,,,2.65,meteohub,2013-05-02 08:32:00,
2013-05-02 04:33:00,67.6,67.3,29.93,NE,45,2.0,4.0,99,0.00,,,2.65,meteohub,2013-05-02 08:33:00,
2013-05-02 04:34:00,67.6,67.3,29.93,SE,135,3.0,4.0,99,0.00,,,2.65,meteohub,2013-05-02 08:34:00,
2013-05-02 04:37:00,67.6,67.3,29.93,North,0,4.0,4.0,99,0.00,,,2.65,meteohub,2013-05-02 08:37:00,
2013-05-02 04:38:00,67.8,67.5,29.93,North,0,2.0,4.0,99,0.00,,,2.65,meteohub,2013-05-02 08:38:00,
2013-05-02 04:40:00,67.8,67.5,29.93,North,0,4.0,4.0,99,0.00,,,2.65,meteohub,2013-05-02 08:40:00,
2013-05-02 04:41:00,67.8,67.5,29.94,NE,45,2.0,4.0,99,0.00,,,2.65,meteohub,2013-05-02 08:41:00,
2013-05-02 04:42:00,67.8,67.5,29.93,East,90,2.0,4.0,99,0.00,,,2.65,meteohub,2013-05-02 08:42:00,
2013-05-02 04:43:00,67.8,67.5,29.93,East,90,4.0,4.0,99,0.00,,,2.65,meteohub,2013-05-02 08:43:00,
2013-05-02 04:46:00,67.8,67.5,29.94,North,0,4.0,8.0,99,0.00,,,2.65,meteohub,2013-05-02 08:46:00,
2013-05-02 04:48:00,68.0,67.6,29.94,NE,45,2.0,8.0,99,0.00,,,2.65,meteohub,2013-05-02 08:48:00,
2013-05-02 04:49:00,68.0,67.6,29.93,WNW,293,4.0,8.0,99,0.00,,,2.65,meteohub,2013-05-02 08:49:00,
2013-05-02 04:51:00,67.8,67.5,29.94,East,90,2.0,8.0,99,0.00,,,2.65,meteohub,2013-05-02 08:51:00,
2013-05-02 04:52:00,67.8,67.5,29.94,East,90,2.0,8.0,99,0.00,,,2.65,meteohub,2013-05-02 08:52:00,
2013-05-02 04:54:00,67.8,67.5,29.94,SE,135,5.0,8.0,99,0.00,,,2.65,meteohub,2013-05-02 08:54:00,
2013-05-02 04:55:00,67.8,67.5,29.94,SE,135,8.0,8.0,99,0.00,,,2.65,meteohub,2013-05-02 08:55:00,
2013-05-02 04:57:00,67.8,67.5,29.94,East,90,4.0,6.0,99,0.00,,,2.65,meteohub,2013-05-02 08:57:00,
2013-05-02 04:58:00,67.8,67.5,29.94,East,90,3.0,6.0,99,0.00,,,2.65,meteohub,2013-05-02 08:58:00,
2013-05-02 05:00:00,67.6,67.3,29.94,East,90,3.0,8.0,99,0.00,,,2.65,meteohub,2013-05-02 09:00:00,
2013-05-02 05:02:00,67.6,67.3,29.94,East,90,2.0,8.0,99,0.00,,,2.65,meteohub,2013-05-02 09:02:00,
2013-05-02 05:04:00,67.6,67.3,29.94,SE,135,6.0,8.0,99,0.00,,,2.65,meteohub,2013-05-02 09:04:00,
2013-05-02 05:07:00,67.6,67.3,29.94,East,90,5.0,8.0,99,0.00,,,2.65,meteohub,2013-05-02 09:07:00,
2013-05-02 05:09:00,67.5,67.1,29.94,SE,135,5.0,8.0,99,0.00,,,2.65,meteohub,2013-05-02 09:09:00,
2013-05-02 05:10:00,67.5,67.1,29.93,East,90,5.0,9.0,99,0.00,,,2.65,meteohub,2013-05-02 09:10:00,
2013-05-02 05:12:00,67.5,67.1,29.94,NE,45,4.0,9.0,99,0.00,,,2.65,meteohub,2013-05-02 09:12:00,
2013-05-02 05:16:00,67.5,67.1,29.93,SE,135,4.0,9.0,99,0.00,,,2.65,meteohub,2013-05-02 09:16:00,
2013-05-02 05:17:00,67.5,67.1,29.93,NE,45,2.0,9.0,99,0.00,,,2.65,meteohub,2013-05-02 09:17:00,
2013-05-02 05:18:00,67.5,67.1,29.93,East,90,3.0,9.0,99,0.00,,,2.65,meteohub,2013-05-02 09:18:00,
2013-05-02 05:19:00,67.5,67.1,29.93,East,90,2.0,9.0,99,0.00,,,2.65,meteohub,2013-05-02 09:19:00,
2013-05-02 05:22:00,67.5,67.1,29.93,North,0,2.0,9.0,99,0.00,,,2.65,meteohub,2013-05-02 09:22:00,
2013-05-02 05:23:00,67.5,67.1,29.93,East,90,2.0,9.0,99,0.00,,,2.65,meteohub,2013-05-02 09:23:00,
2013-05-02 05:26:00,67.5,67.1,29.93,NE,45,1.0,6.0,99,0.00,,,2.65,meteohub,2013-05-02 09:26:00,
2013-05-02 05:28:00,67.5,67.1,29.93,East,90,2.0,6.0,99,0.00,,,2.65,meteohub,2013-05-02 09:28:00,
2013-05-02 05:31:00,67.3,66.9,29.93,North,0,4.0,4.0,99,0.00,,,2.65,meteohub,2013-05-02 09:31:00,
2013-05-02 05:32:00,67.3,66.9,29.93,NE,45,2.0,4.0,99,0.00,,,2.65,meteohub,2013-05-02 09:32:00,
2013-05-02 05:33:00,67.3,66.9,29.93,East,90,2.0,4.0,99,0.00,,,2.65,meteohub,2013-05-02 09:33:00,
2013-05-02 05:35:00,67.3,66.9,29.94,North,0,2.0,4.0,99,0.00,,,2.65,meteohub,2013-05-02 09:35:00,
2013-05-02 05:37:00,67.3,66.9,29.94,North,0,2.0,4.0,99,0.00,,,2.65,meteohub,2013-05-02 09:37:00,
2013-05-02 05:38:00,67.3,66.9,29.94,East,90,2.0,4.0,99,0.00,,,2.65,meteohub,2013-05-02 09:38:00,
2013-05-02 05:42:00,67.3,66.9,29.94,NE,45,2.0,4.0,99,0.00,,,2.65,meteohub,2013-05-02 09:42:00,
2013-05-02 05:43:00,67.3,66.9,29.94,East,90,2.0,4.0,99,0.00,,,2.65,meteohub,2013-05-02 09:43:00,
2013-05-02 05:44:00,67.1,66.7,29.94,East,90,2.0,4.0,99,0.00,,,2.65,meteohub,2013-05-02 09:44:00,
2013-05-02 05:45:00,67.1,66.7,29.94,East,90,4.0,4.0,99,0.00,,,2.65,meteohub,2013-05-02 09:45:00,
2013-05-02 05:49:00,67.1,66.7,29.94,NW,315,2.0,4.0,99,0.00,,,2.65,meteohub,2013-05-02 09:49:00,
2013-05-02 05:50:00,67.1,66.7,29.94,East,90,2.0,4.0,99,0.00,,,2.65,meteohub,2013-05-02 09:50:00,
2013-05-02 05:51:00,67.1,66.7,29.94,NE,45,2.0,4.0,99,0.00,,,2.65,meteohub,2013-05-02 09:51:00,
2013-05-02 05:52:00,67.1,66.7,29.94,NE,45,2.0,4.0,99,0.00,,,2.65,meteohub,2013-05-02 09:52:00,
2013-05-02 05:55:00,66.9,66.6,29.94,East,90,2.0,5.0,99,0.00,,,2.65,meteohub,2013-05-02 09:55:00,
2013-05-02 05:56:00,66.9,66.6,29.94,NE,45,2.0,5.0,99,0.00,,,2.65,meteohub,2013-05-02 09:56:00,
2013-05-02 05:57:00,66.9,66.6,29.94,NE,45,2.0,5.0,99,0.00,,,2.65,meteohub,2013-05-02 09:57:00,
2013-05-02 05:58:00,66.9,66.6,29.94,East,90,2.0,5.0,99,0.00,,,2.65,meteohub,2013-05-02 09:58:00,
2013-05-02 06:00:00,66.9,66.6,29.94,NE,45,5.0,5.0,99,0.00,,,2.65,meteohub,2013-05-02 10:00:00,
2013-05-02 06:02:00,66.9,66.6,29.94,NW,315,2.0,5.0,99,0.00,,,2.65,meteohub,2013-05-02 10:02:00,
2013-05-02 06:03:00,66.9,66.6,29.94,North,0,2.0,5.0,99,0.00,,,2.65,meteohub,2013-05-02 10:03:00,
2013-05-02 06:04:00,66.9,66.6,29.94,East,90,3.0,5.0,99,0.00,,,2.65,meteohub,2013-05-02 10:04:00,
2013-05-02 06:05:00,66.9,66.6,29.94,East,90,4.0,5.0,99,0.00,,,2.65,meteohub,2013-05-02 10:05:00,
2013-05-02 06:08:00,66.9,66.6,29.94,NE,45,2.0,5.0,99,0.00,,,2.65,meteohub,2013-05-02 10:08:00,
2013-05-02 06:09:00,66.9,66.6,29.94,North,0,2.0,5.0,99,0.00,,,2.65,meteohub,2013-05-02 10:09:00,
2013-05-02 06:10:00,66.9,66.6,29.94,NE,45,2.0,5.0,99,0.00,,,2.65,meteohub,2013-05-02 10:10:00,
2013-05-02 06:12:00,66.9,66.6,29.94,NE,45,3.0,5.0,99,0.00,,,2.65,meteohub,2013-05-02 10:12:00,
2013-05-02 06:14:00,66.9,66.6,29.94,East,90,2.0,5.0,99,0.00,,,2.65,meteohub,2013-05-02 10:14:00,
2013-05-02 06:16:00,66.7,66.4,29.94,North,0,2.0,5.0,99,0.00,,,2.65,meteohub,2013-05-02 10:16:00,
2013-05-02 06:17:00,66.7,66.4,29.94,North,0,2.0,5.0,99,0.00,,,2.65,meteohub,2013-05-02 10:17:00,
2013-05-02 06:19:00,66.7,66.4,29.93,North,0,4.0,5.0,99,0.00,,,2.65,meteohub,2013-05-02 10:19:00,
2013-05-02 06:21:00,66.7,66.4,29.93,North,0,4.0,7.0,99,0.00,,,2.65,meteohub,2013-05-02 10:21:00,
2013-05-02 06:22:00,66.7,66.4,29.94,East,90,1.0,7.0,99,0.00,,,2.65,meteohub,2013-05-02 10:22:00,
2013-05-02 06:24:00,66.7,66.4,29.94,South,180,4.0,7.0,99,0.00,,,2.65,meteohub,2013-05-02 10:24:00,
2013-05-02 06:25:00,66.7,66.4,29.94,North,0,3.0,7.0,99,0.00,,,2.65,meteohub,2013-05-02 10:25:00,
2013-05-02 06:27:00,66.7,66.4,29.93,East,90,5.0,7.0,99,0.00,,,2.65,meteohub,2013-05-02 10:27:00,
2013-05-02 06:30:00,66.7,66.4,29.94,North,0,1.0,7.0,99,0.00,,,2.65,meteohub,2013-05-02 10:30:00,
2013-05-02 06:31:00,66.7,66.4,29.94,North,0,1.0,7.0,99,0.00,,,2.65,meteohub,2013-05-02 10:31:00,
2013-05-02 06:34:00,66.7,66.4,29.94,NE,45,2.0,7.0,99,0.00,,,2.65,meteohub,2013-05-02 10:34:00,
2013-05-02 06:35:00,66.7,66.4,29.94,NW,315,1.0,5.0,99,0.00,,,2.65,meteohub,2013-05-02 10:35:00,
2013-05-02 06:36:00,66.7,66.4,29.94,East,90,2.0,5.0,99,0.00,,,2.65,meteohub,2013-05-02 10:36:00,
2013-05-02 06:37:00,66.7,66.4,29.94,East,90,2.0,5.0,99,0.00,,,2.65,meteohub,2013-05-02 10:37:00,
2013-05-02 06:38:00,66.7,66.4,29.94,East,90,4.0,5.0,99,0.00,,,2.65,meteohub,2013-05-02 10:38:00,
2013-05-02 06:40:00,66.7,66.4,29.94,NE,45,3.0,5.0,99,0.00,,,2.65,meteohub,2013-05-02 10:40:00,
2013-05-02 06:42:00,66.9,66.6,29.94,NE,45,2.0,5.0,99,0.00,,,2.65,meteohub,2013-05-02 10:42:00,
2013-05-02 06:44:00,66.9,66.6,29.94,NE,45,2.0,5.0,99,0.00,,,2.65,meteohub,2013-05-02 10:44:00,
2013-05-02 06:45:00,66.7,66.4,29.94,East,90,2.0,4.0,99,0.00,,,2.65,meteohub,2013-05-02 10:45:00,
2013-05-02 06:47:00,66.9,66.6,29.94,SE,135,4.0,4.0,99,0.00,,,2.65,meteohub,2013-05-02 10:47:00,
2013-05-02 06:49:00,66.9,66.6,29.95,NE,45,4.0,4.0,99,0.00,,,2.65,meteohub,2013-05-02 10:49:00,
2013-05-02 06:50:00,66.9,66.6,29.94,NE,45,2.0,4.0,99,0.00,,,2.65,meteohub,2013-05-02 10:50:00,
2013-05-02 06:52:00,66.9,66.6,29.94,East,90,1.0,4.0,99,0.00,,,2.65,meteohub,2013-05-02 10:52:00,
2013-05-02 06:54:00,66.9,66.6,29.94,NE,45,2.0,4.0,99,0.00,,,2.65,meteohub,2013-05-02 10:54:00,
2013-05-02 06:55:00,66.9,66.6,29.94,East,90,2.0,4.0,99,0.00,,,2.65,meteohub,2013-05-02 10:55:00,
2013-05-02 06:57:00,66.9,66.6,29.94,East,90,3.0,4.0,99,0.00,,,2.65,meteohub,2013-05-02 10:57:00,
2013-05-02 06:58:00,66.9,66.6,29.94,East,90,2.0,4.0,99,0.00,,,2.65,meteohub,2013-05-02 10:58:00,
2013-05-02 07:01:00,66.9,66.6,29.94,East,90,2.0,4.0,99,0.00,,,2.65,meteohub,2013-05-02 11:01:00,
2013-05-02 07:03:00,66.9,66.6,29.94,North,0,2.0,4.0,99,0.00,,,2.65,meteohub,2013-05-02 11:03:00,
2013-05-02 07:05:00,66.9,66.6,29.94,SE,135,2.0,4.0,99,0.00,,,2.65,meteohub,2013-05-02 11:05:00,
2013-05-02 07:06:00,66.9,66.6,29.94,SE,135,2.0,4.0,99,0.00,,,2.65,meteohub,2013-05-02 11:06:00,
2013-05-02 07:08:00,67.1,66.7,29.94,North,0,2.0,4.0,99,0.00,,,2.65,meteohub,2013-05-02 11:08:00,
2013-05-02 07:09:00,66.9,66.6,29.94,East,90,2.0,4.0,99,0.00,,,2.65,meteohub,2013-05-02 11:09:00,
2013-05-02 07:11:00,67.1,66.7,29.94,East,90,2.0,4.0,99,0.00,,,2.65,meteohub,2013-05-02 11:11:00,
2013-05-02 07:13:00,67.1,66.7,29.94,NE,45,2.0,4.0,99,0.00,,,2.65,meteohub,2013-05-02 11:13:00,
2013-05-02 07:14:00,67.1,66.7,29.94,NE,45,2.0,4.0,99,0.00,,,2.65,meteohub,2013-05-02 11:14:00,
2013-05-02 07:16:00,67.1,66.7,29.94,East,90,1.0,4.0,99,0.00,,,2.65,meteohub,2013-05-02 11:16:00,
2013-05-02 07:19:00,67.3,66.9,29.94,NE,45,2.0,4.0,99,0.00,,,2.65,meteohub,2013-05-02 11:19:00,
2013-05-02 07:20:00,67.3,66.9,29.95,NE,45,5.0,5.0,99,0.00,,,2.65,meteohub,2013-05-02 11:20:00,
2013-05-02 07:22:00,67.3,66.9,29.95,NE,45,2.0,4.0,99,0.00,,,2.65,meteohub,2013-05-02 11:22:00,
2013-05-02 07:23:00,67.3,66.9,29.95,NE,45,1.0,4.0,99,0.00,,,2.65,meteohub,2013-05-02 11:23:00,
2013-05-02 07:25:00,67.3,66.9,29.95,NE,45,2.0,5.0,99,0.00,,,2.65,meteohub,2013-05-02 11:25:00,
2013-05-02 07:27:00,67.3,66.9,29.95,SE,135,2.0,5.0,99,0.00,,,2.65,meteohub,2013-05-02 11:27:00,
2013-05-02 07:28:00,67.3,66.9,29.95,NE,45,2.0,5.0,99,0.00,,,2.65,meteohub,2013-05-02 11:28:00,
2013-05-02 07:30:00,67.3,66.9,29.95,NE,45,1.0,5.0,99,0.00,,,2.65,meteohub,2013-05-02 11:30:00,
2013-05-02 07:32:00,67.5,67.1,29.95,North,0,2.0,5.0,99,0.00,,,2.65,meteohub,2013-05-02 11:32:00,
2013-05-02 07:33:00,67.5,67.1,29.95,North,0,1.0,5.0,99,0.00,,,2.65,meteohub,2013-05-02 11:33:00,
2013-05-02 07:36:00,67.5,67.1,29.95,NE,45,2.0,5.0,99,0.00,,,2.65,meteohub,2013-05-02 11:36:00,
2013-05-02 07:37:00,67.5,67.1,29.95,NE,45,2.0,5.0,99,0.00,,,2.65,meteohub,2013-05-02 11:37:00,
2013-05-02 07:38:00,67.5,67.1,29.95,North,0,1.0,5.0,99,0.00,,,2.65,meteohub,2013-05-02 11:38:00,
2013-05-02 07:41:00,67.6,67.3,29.94,East,90,2.0,3.0,99,0.00,,,2.65,meteohub,2013-05-02 11:41:00,
2013-05-02 07:43:00,67.8,67.5,29.94,NE,45,2.0,3.0,99,0.00,,,2.65,meteohub,2013-05-02 11:43:00,
2013-05-02 07:44:00,67.8,67.5,29.95,NE,45,2.0,3.0,99,0.00,,,2.65,meteohub,2013-05-02 11:44:00,
2013-05-02 07:46:00,67.8,67.5,29.94,North,0,2.0,3.0,99,0.00,,,2.65,meteohub,2013-05-02 11:46:00,
2013-05-02 07:49:00,68.0,67.6,29.94,East,90,2.0,3.0,99,0.00,,,2.65,meteohub,2013-05-02 11:49:00,
2013-05-02 07:52:00,68.0,67.6,29.94,NE,45,2.0,3.0,99,0.00,,,2.65,meteohub,2013-05-02 11:52:00,
2013-05-02 07:53:00,68.0,67.6,29.94,NE,45,2.0,3.0,99,0.00,,,2.65,meteohub,2013-05-02 11:53:00,
2013-05-02 07:55:00,68.2,67.8,29.94,NE,45,2.0,3.0,99,0.00,,,2.65,meteohub,2013-05-02 11:55:00,
2013-05-02 07:56:00,68.2,67.8,29.94,NE,45,2.0,3.0,99,0.00,,,2.65,meteohub,2013-05-02 11:56:00,
2013-05-02 07:57:00,68.2,67.6,29.94,NE,45,2.0,3.0,98,0.00,,,2.65,meteohub,2013-05-02 11:57:00,
2013-05-02 07:58:00,68.2,67.6,29.94,NW,315,2.0,3.0,98,0.00,,,2.65,meteohub,2013-05-02 11:58:00,
2013-05-02 08:01:00,68.2,67.6,29.94,NE,45,2.0,3.0,98,0.00,,,2.65,meteohub,2013-05-02 12:01:00,
2013-05-02 08:03:00,68.2,67.6,29.94,NE,45,2.0,3.0,98,0.00,,,2.65,meteohub,2013-05-02 12:03:00,
2013-05-02 08:05:00,68.4,67.8,29.94,North,0,2.0,3.0,98,0.00,,,2.65,meteohub,2013-05-02 12:05:00,
2013-05-02 08:06:00,68.4,67.8,29.94,NE,45,3.0,3.0,98,0.00,,,2.65,meteohub,2013-05-02 12:06:00,
2013-05-02 08:07:00,68.4,67.8,29.94,NE,45,3.0,3.0,98,0.00,,,2.65,meteohub,2013-05-02 12:07:00,
2013-05-02 08:10:00,68.4,67.8,29.94,East,90,2.0,3.0,98,0.00,,,2.65,meteohub,2013-05-02 12:10:00,
2013-05-02 08:11:00,68.4,67.5,29.95,NE,45,2.0,3.0,97,0.00,,,2.65,meteohub,2013-05-02 12:11:00,
2013-05-02 08:12:00,68.4,67.5,29.94,East,90,2.0,3.0,97,0.00,,,2.65,meteohub,2013-05-02 12:12:00,
2013-05-02 08:13:00,68.4,67.5,29.95,SE,135,2.0,3.0,97,0.00,,,2.65,meteohub,2013-05-02 12:13:00,
2013-05-02 08:17:00,68.4,67.5,29.95,North,0,2.0,3.0,97,0.00,,,2.65,meteohub,2013-05-02 12:17:00,
2013-05-02 08:18:00,68.4,67.5,29.95,North,0,4.0,4.0,97,0.00,,,2.65,meteohub,2013-05-02 12:18:00,
2013-05-02 08:21:00,68.4,67.5,29.95,NE,45,3.0,4.0,97,0.00,,,2.65,meteohub,2013-05-02 12:21:00,
2013-05-02 08:22:00,68.4,67.1,29.95,NE,45,2.0,4.0,96,0.00,,,2.65,meteohub,2013-05-02 12:22:00,
2013-05-02 08:23:00,68.5,67.3,29.95,SE,135,2.0,4.0,96,0.00,,,2.65,meteohub,2013-05-02 12:23:00,
2013-05-02 08:24:00,68.5,67.3,29.95,East,90,2.0,4.0,96,0.00,,,2.65,meteohub,2013-05-02 12:24:00,
2013-05-02 08:28:00,68.5,67.3,29.95,North,0,2.0,4.0,96,0.00,,,2.65,meteohub,2013-05-02 12:28:00,
2013-05-02 08:29:00,68.5,67.3,29.95,WSW,248,2.0,4.0,96,0.00,,,2.65,meteohub,2013-05-02 12:29:00,
2013-05-02 08:30:00,68.5,67.3,29.95,NE,45,2.0,4.0,96,0.00,,,2.65,meteohub,2013-05-02 12:30:00,
2013-05-02 08:31:00,68.7,67.5,29.95,SE,135,3.0,4.0,96,0.00,,,2.65,meteohub,2013-05-02 12:31:00,
2013-05-02 08:32:00,68.7,67.5,29.95,East,90,4.0,4.0,96,0.00,,,2.65,meteohub,2013-05-02 12:32:00,
2013-05-02 08:33:00,68.7,67.5,29.95,SE,135,3.0,4.0,96,0.00,,,2.65,meteohub,2013-05-02 12:33:00,
2013-05-02 08:36:00,68.7,67.5,29.95,NE,45,2.0,4.0,96,0.00,,,2.65,meteohub,2013-05-02 12:36:00,
2013-05-02 08:37:00,68.7,67.5,29.95,NE,45,2.0,4.0,96,0.00,,,2.65,meteohub,2013-05-02 12:37:00,
2013-05-02 08:38:00,68.9,67.6,29.95,NE,45,2.0,4.0,96,0.00,,,2.65,meteohub,2013-05-02 12:38:00,
2013-05-02 08:40:00,68.9,67.6,29.95,NE,45,2.0,4.0,96,0.00,,,2.65,meteohub,2013-05-02 12:40:00,
2013-05-02 08:41:00,68.9,67.6,29.94,NE,45,8.0,8.0,96,0.00,,,2.65,meteohub,2013-05-02 12:41:00,
2013-05-02 08:43:00,68.9,67.6,29.95,East,90,2.0,4.0,96,0.00,,,2.65,meteohub,2013-05-02 12:43:00,
2013-05-02 08:46:00,68.9,67.5,29.94,NE,45,2.0,8.0,95,0.00,,,2.65,meteohub,2013-05-02 12:46:00,
2013-05-02 08:47:00,69.1,67.6,29.95,NE,45,2.0,8.0,95,0.00,,,2.65,meteohub,2013-05-02 12:47:00,
2013-05-02 08:48:00,69.1,67.6,29.94,East,90,2.0,8.0,95,0.00,,,2.65,meteohub,2013-05-02 12:48:00,
2013-05-02 08:49:00,69.1,67.6,29.94,East,90,2.0,8.0,95,0.00,,,2.65,meteohub,2013-05-02 12:49:00,
2013-05-02 08:53:00,69.1,67.6,29.94,East,90,2.0,8.0,95,0.00,,,2.65,meteohub,2013-05-02 12:53:00,
2013-05-02 08:54:00,69.3,67.8,29.94,East,90,3.0,8.0,95,0.00,,,2.65,meteohub,2013-05-02 12:54:00,
2013-05-02 08:55:00,69.3,67.8,29.94,East,90,3.0,8.0,95,0.00,,,2.65,meteohub,2013-05-02 12:55:00,
2013-05-02 08:56:00,69.3,67.8,29.94,East,90,3.0,8.0,95,0.00,,,2.65,meteohub,2013-05-02 12:56:00,
2013-05-02 08:59:00,69.4,68.0,29.93,NW,315,3.0,8.0,95,0.00,,,2.65,meteohub,2013-05-02 12:59:00,
2013-05-02 09:00:00,69.4,68.0,29.93,NE,45,3.0,4.0,95,0.00,,,2.65,meteohub,2013-05-02 13:00:00,
2013-05-02 09:01:00,69.4,68.0,29.94,NE,45,4.0,4.0,95,0.00,,,2.65,meteohub,2013-05-02 13:01:00,
2013-05-02 09:02:00,69.6,68.2,29.93,North,0,2.0,4.0,95,0.00,,,2.65,meteohub,2013-05-02 13:02:00,
2013-05-02 09:04:00,69.6,67.8,29.93,East,90,2.0,4.0,94,0.00,,,2.65,meteohub,2013-05-02 13:04:00,
2013-05-02 09:06:00,69.8,67.6,29.93,East,90,5.0,5.0,93,0.00,,,2.65,meteohub,2013-05-02 13:06:00,
2013-05-02 09:07:00,69.8,67.6,29.93,North,0,2.0,4.0,93,0.00,,,2.65,meteohub,2013-05-02 13:07:00,
2013-05-02 09:10:00,70.0,67.8,29.93,NE,45,3.0,5.0,93,0.00,,,2.65,meteohub,2013-05-02 13:10:00,
2013-05-02 09:13:00,70.2,68.0,29.93,North,0,3.0,5.0,93,0.00,,,2.65,meteohub,2013-05-02 13:13:00,
2013-05-02 09:15:00,70.5,68.4,29.93,NE,45,2.0,5.0,93,0.00,,,2.65,meteohub,2013-05-02 13:15:00,
2013-05-02 09:17:00,71.1,68.5,29.94,East,90,4.0,9.0,92,0.00,,,2.65,meteohub,2013-05-02 13:17:00,
2013-05-02 09:19:00,71.4,68.9,29.93,East,90,4.0,9.0,92,0.00,,,2.65,meteohub,2013-05-02 13:19:00,
2013-05-02 09:21:00,71.8,69.1,29.94,North,0,3.0,9.0,91,0.00,,,2.65,meteohub,2013-05-02 13:21:00,
2013-05-02 09:22:00,72.0,69.3,29.94,North,0,4.0,9.0,91,0.00,,,2.65,meteohub,2013-05-02 13:22:00,
2013-05-02 09:24:00,72.5,69.4,29.94,East,90,3.0,9.0,90,0.00,,,2.65,meteohub,2013-05-02 13:24:00,
2013-05-02 09:26:00,72.9,69.8,29.94,NE,45,4.0,5.0,90,0.00,,,2.65,meteohub,2013-05-02 13:26:00,
2013-05-02 09:27:00,73.0,69.6,29.94,East,90,4.0,5.0,89,0.00,,,2.65,meteohub,2013-05-02 13:27:00,
2013-05-02 09:28:00,73.0,69.6,29.94,East,90,4.0,5.0,89,0.00,,,2.65,meteohub,2013-05-02 13:28:00,
2013-05-02 09:29:00,73.2,69.1,29.94,North,0,9.0,9.0,87,0.00,,,2.65,meteohub,2013-05-02 13:29:00,
2013-05-02 09:32:00,73.4,69.3,29.94,SE,135,8.0,10.0,87,0.00,,,2.65,meteohub,2013-05-02 13:32:00,
2013-05-02 09:33:00,73.0,68.2,29.95,East,90,4.0,10.0,85,0.00,,,2.65,meteohub,2013-05-02 13:33:00,
2013-05-02 09:35:00,72.9,68.0,29.95,WNW,293,6.0,10.0,85,0.00,,,2.65,meteohub,2013-05-02 13:35:00,
2013-05-02 09:37:00,72.7,67.8,29.94,NE,45,4.0,10.0,85,0.00,,,2.65,meteohub,2013-05-02 13:37:00,
2013-05-02 09:38:00,72.7,67.8,29.95,WSW,248,5.0,10.0,85,0.00,,,2.65,meteohub,2013-05-02 13:38:00,
2013-05-02 09:40:00,72.7,67.8,29.94,NE,45,3.0,10.0,85,0.00,,,2.65,meteohub,2013-05-02 13:40:00,
2013-05-02 09:41:00,72.7,67.8,29.94,East,90,3.0,9.0,85,0.00,,,2.65,meteohub,2013-05-02 13:41:00,
2013-05-02 09:44:00,72.9,68.0,29.95,NE,45,2.0,9.0,85,0.00,,,2.65,meteohub,2013-05-02 13:44:00,
2013-05-02 09:45:00,72.9,68.0,29.95,SE,135,2.0,9.0,85,0.00,,,2.65,meteohub,2013-05-02 13:45:00,
2013-05-02 09:46:00,73.0,68.5,29.95,North,0,2.0,11.0,86,0.00,,,2.65,meteohub,2013-05-02 13:46:00,
2013-05-02 09:47:00,73.0,68.5,29.95,North,0,3.0,11.0,86,0.00,,,2.65,meteohub,2013-05-02 13:47:00,
2013-05-02 09:50:00,72.9,68.0,29.95,SE,135,2.0,11.0,85,0.00,,,2.65,meteohub,2013-05-02 13:50:00,
2013-05-02 09:51:00,72.9,68.0,29.95,East,90,4.0,11.0,85,0.00,,,2.65,meteohub,2013-05-02 13:51:00,
2013-05-02 09:52:00,72.7,67.8,29.95,NE,45,3.0,11.0,85,0.00,,,2.65,meteohub,2013-05-02 13:52:00,
2013-05-02 09:55:00,72.7,68.2,29.95,East,90,4.0,11.0,86,0.00,,,2.65,meteohub,2013-05-02 13:55:00,
2013-05-02 09:56:00,72.7,68.2,29.95,East,90,2.0,11.0,86,0.00,,,2.65,meteohub,2013-05-02 13:56:00,
2013-05-02 09:57:00,72.7,68.2,29.95,East,90,2.0,11.0,86,0.00,,,2.65,meteohub,2013-05-02 13:57:00,
2013-05-02 09:59:00,72.5,68.0,29.96,NE,45,3.0,11.0,86,0.00,,,2.65,meteohub,2013-05-02 13:59:00,
2013-05-02 10:00:00,72.5,68.0,29.95,East,90,4.0,6.0,86,0.00,,,2.65,meteohub,2013-05-02 14:00:00,
2013-05-02 10:01:00,72.5,68.0,29.96,East,90,4.0,6.0,86,0.00,,,2.65,meteohub,2013-05-02 14:01:00,
2013-05-02 10:03:00,72.3,67.8,29.96,East,90,2.0,6.0,86,0.00,,,2.65,meteohub,2013-05-02 14:03:00,
2013-05-02 10:05:00,72.3,67.8,29.95,East,90,4.0,6.0,86,0.00,,,2.65,meteohub,2013-05-02 14:05:00,
2013-05-02 10:06:00,72.3,67.8,29.95,East,90,6.0,6.0,86,0.00,,,2.65,meteohub,2013-05-02 14:06:00,
2013-05-02 10:08:00,72.3,67.8,29.95,East,90,2.0,6.0,86,0.00,,,2.65,meteohub,2013-05-02 14:08:00,
2013-05-02 10:09:00,72.3,68.2,29.95,East,90,2.0,6.0,87,0.00,,,2.65,meteohub,2013-05-02 14:09:00,
2013-05-02 10:10:00,72.3,68.2,29.95,SE,135,2.0,6.0,87,0.00,,,2.65,meteohub,2013-05-02 14:10:00,
2013-05-02 10:13:00,72.9,68.7,29.95,East,90,3.0,6.0,87,0.00,,,2.65,meteohub,2013-05-02 14:13:00,
2013-05-02 10:14:00,73.0,68.9,29.95,SE,135,3.0,6.0,87,0.00,,,2.65,meteohub,2013-05-02 14:14:00,
2013-05-02 10:15:00,73.0,68.9,29.95,SE,135,6.0,8.0,87,0.00,,,2.65,meteohub,2013-05-02 14:15:00,
2013-05-02 10:18:00,73.2,69.1,29.95,NE,45,3.0,8.0,87,0.00,,,2.65,meteohub,2013-05-02 14:18:00,
2013-05-02 10:20:00,73.4,69.3,29.95,East,90,4.0,9.0,87,0.00,,,2.65,meteohub,2013-05-02 14:20:00,
2013-05-02 10:21:00,73.4,69.3,29.95,NE,45,3.0,9.0,87,0.00,,,2.65,meteohub,2013-05-02 14:21:00,
2013-05-02 10:22:00,73.4,69.3,29.95,WSW,248,2.0,9.0,87,0.00,,,2.65,meteohub,2013-05-02 14:22:00,
2013-05-02 10:24:00,73.6,69.4,29.95,SE,135,6.0,9.0,87,0.00,,,2.65,meteohub,2013-05-02 14:24:00,
2013-05-02 10:27:00,73.4,69.3,29.96,East,90,6.0,9.0,87,0.00,,,2.65,meteohub,2013-05-02 14:27:00,
2013-05-02 10:29:00,73.4,68.9,29.95,East,90,6.0,9.0,86,0.00,,,2.65,meteohub,2013-05-02 14:29:00,
2013-05-02 10:31:00,73.2,68.4,29.96,SE,135,4.0,9.0,85,0.00,,,2.65,meteohub,2013-05-02 14:31:00,
2013-05-02 10:33:00,73.2,68.7,29.95,East,90,2.0,9.0,86,0.00,,,2.65,meteohub,2013-05-02 14:33:00,
2013-05-02 10:35:00,73.4,69.3,29.96,NE,45,3.0,7.0,87,0.00,,,2.65,meteohub,2013-05-02 14:35:00,
2013-05-02 10:36:00,73.4,69.3,29.95,East,90,4.0,7.0,87,0.00,,,2.65,meteohub,2013-05-02 14:36:00,
2013-05-02 10:39:00,73.4,69.3,29.95,NE,45,3.0,7.0,87,0.00,,,2.65,meteohub,2013-05-02 14:39:00,
2013-05-02 10:40:00,73.4,69.3,29.95,SE,135,4.0,7.0,87,0.00,,,2.65,meteohub,2013-05-02 14:40:00,
2013-05-02 10:41:00,73.4,69.3,29.95,North,0,5.0,7.0,87,0.00,,,2.65,meteohub,2013-05-02 14:41:00,
2013-05-02 10:42:00,73.4,69.3,29.96,North,0,5.0,7.0,87,0.00,,,2.65,meteohub,2013-05-02 14:42:00,
2013-05-02 10:47:00,73.4,69.3,29.96,NE,45,5.0,6.0,87,0.00,,,2.65,meteohub,2013-05-02 14:47:00,
2013-05-02 10:48:00,73.4,69.3,29.95,East,90,5.0,6.0,87,0.00,,,2.65,meteohub,2013-05-02 14:48:00,
2013-05-02 10:50:00,73.4,69.3,29.96,SE,135,4.0,6.0,87,0.00,,,2.65,meteohub,2013-05-02 14:50:00,
2013-05-02 10:52:00,73.4,69.3,29.96,SE,135,7.0,7.0,87,0.00,,,2.65,meteohub,2013-05-02 14:52:00,
2013-05-02 10:53:00,73.4,69.3,29.96,NE,45,4.0,6.0,87,0.00,,,2.65,meteohub,2013-05-02 14:53:00,
2013-05-02 10:54:00,73.4,69.3,29.96,East,90,5.0,6.0,87,0.00,,,2.65,meteohub,2013-05-02 14:54:00,
2013-05-02 10:56:00,73.4,69.3,29.96,East,90,2.0,7.0,87,0.00,,,2.65,meteohub,2013-05-02 14:56:00,
2013-05-02 10:57:00,73.4,69.3,29.96,North,0,2.0,7.0,87,0.00,,,2.65,meteohub,2013-05-02 14:57:00,
2013-05-02 10:59:00,73.4,69.3,29.96,NE,45,1.0,7.0,87,0.00,,,2.65,meteohub,2013-05-02 14:59:00,
2013-05-02 11:01:00,73.4,69.3,29.96,East,90,1.0,7.0,87,0.00,,,2.65,meteohub,2013-05-02 15:01:00,
2013-05-02 11:03:00,73.4,69.3,29.96,SE,135,3.0,7.0,87,0.00,,,2.65,meteohub,2013-05-02 15:03:00,
2013-05-02 11:05:00,73.4,69.3,29.96,NE,45,4.0,7.0,87,0.00,,,2.65,meteohub,2013-05-02 15:05:00,
2013-05-02 11:07:00,73.4,69.3,29.95,East,90,4.0,7.0,87,0.00,,,2.65,meteohub,2013-05-02 15:07:00,
2013-05-02 11:08:00,73.2,69.1,29.95,East,90,2.0,7.0,87,0.00,,,2.65,meteohub,2013-05-02 15:08:00,
2013-05-02 11:10:00,73.2,69.1,29.95,East,90,6.0,6.0,87,0.00,,,2.65,meteohub,2013-05-02 15:10:00,
2013-05-02 11:12:00,73.2,69.1,29.95,East,90,2.0,4.0,87,0.00,,,2.65,meteohub,2013-05-02 15:12:00,
2013-05-02 11:13:00,73.4,69.6,29.95,North,0,3.0,4.0,88,0.00,,,2.65,meteohub,2013-05-02 15:13:00,
2013-05-02 11:15:00,73.4,69.6,29.95,East,90,2.0,6.0,88,0.00,,,2.65,meteohub,2013-05-02 15:15:00,
2013-05-02 11:16:00,73.4,69.6,29.95,East,90,2.0,6.0,88,0.00,,,2.65,meteohub,2013-05-02 15:16:00,
2013-05-02 11:17:00,73.4,69.6,29.95,East,90,2.0,6.0,88,0.00,,,2.65,meteohub,2013-05-02 15:17:00,
2013-05-02 11:18:00,73.6,69.8,29.95,NE,45,6.0,6.0,88,0.00,,,2.65,meteohub,2013-05-02 15:18:00,
2013-05-02 11:21:00,73.8,70.0,29.95,East,90,1.0,6.0,88,0.00,,,2.65,meteohub,2013-05-02 15:21:00,
2013-05-02 11:22:00,73.8,70.0,29.95,NE,45,2.0,6.0,88,0.00,,,2.65,meteohub,2013-05-02 15:22:00,
2013-05-02 11:23:00,73.8,70.0,29.95,North,0,2.0,6.0,88,0.00,,,2.65,meteohub,2013-05-02 15:23:00,
2013-05-02 11:26:00,73.9,70.2,29.95,NE,45,2.0,6.0,88,0.00,,,2.65,meteohub,2013-05-02 15:26:00,
2013-05-02 11:27:00,74.1,70.3,29.95,NE,45,2.0,6.0,88,0.00,,,2.65,meteohub,2013-05-02 15:27:00,
2013-05-02 11:28:00,74.1,70.3,29.95,NE,45,2.0,6.0,88,0.00,,,2.65,meteohub,2013-05-02 15:28:00,
2013-05-02 11:30:00,74.3,70.5,29.94,East,90,2.0,6.0,88,0.00,,,2.65,meteohub,2013-05-02 15:30:00,
2013-05-02 11:31:00,74.3,70.5,29.95,East,90,4.0,6.0,88,0.00,,,2.65,meteohub,2013-05-02 15:31:00,
2013-05-02 11:32:00,74.3,70.5,29.95,NE,45,3.0,6.0,88,0.00,,,2.65,meteohub,2013-05-02 15:32:00,
2013-05-02 11:33:00,74.3,70.5,29.95,NE,45,1.0,6.0,88,0.00,,,2.65,meteohub,2013-05-02 15:33:00,
2013-05-02 11:36:00,74.3,70.2,29.94,NE,45,2.0,4.0,87,0.00,,,2.65,meteohub,2013-05-02 15:36:00,
2013-05-02 11:37:00,74.3,70.2,29.95,NE,45,2.0,4.0,87,0.00,,,2.65,meteohub,2013-05-02 15:37:00,
2013-05-02 11:38:00,74.1,70.0,29.94,East,90,2.0,4.0,87,0.00,,,2.65,meteohub,2013-05-02 15:38:00,
2013-05-02 11:40:00,74.1,70.0,29.94,NE,45,2.0,4.0,87,0.00,,,2.65,meteohub,2013-05-02 15:40:00,
2013-05-02 11:41:00,74.1,70.0,29.94,North,0,2.0,4.0,87,0.00,,,2.65,meteohub,2013-05-02 15:41:00,
2013-05-02 11:42:00,74.1,70.0,29.94,North,0,2.0,4.0,87,0.00,,,2.65,meteohub,2013-05-02 15:42:00,
2013-05-02 11:43:00,74.1,70.0,29.94,East,90,2.0,4.0,87,0.00,,,2.65,meteohub,2013-05-02 15:43:00,
2013-05-02 11:45:00,73.9,69.8,29.94,NE,45,2.0,4.0,87,0.00,,,2.65,meteohub,2013-05-02 15:45:00,
2013-05-02 11:46:00,73.9,70.2,29.94,NE,45,2.0,4.0,88,0.00,,,2.65,meteohub,2013-05-02 15:46:00,
2013-05-02 11:47:00,73.9,70.2,29.94,NE,45,2.0,4.0,88,0.00,,,2.65,meteohub,2013-05-02 15:47:00,
2013-05-02 11:48:00,73.9,70.2,29.94,North,0,2.0,4.0,88,0.00,,,2.65,meteohub,2013-05-02 15:48:00,
2013-05-02 11:52:00,73.8,70.0,29.95,SE,135,4.0,4.0,88,0.00,,,2.65,meteohub,2013-05-02 15:52:00,
2013-05-02 11:54:00,73.6,69.8,29.95,East,90,3.0,3.0,88,0.00,,,2.65,meteohub,2013-05-02 15:54:00,
2013-05-02 11:55:00,73.6,69.8,29.95,East,90,2.0,4.0,88,0.00,,,2.65,meteohub,2013-05-02 15:55:00,
2013-05-02 11:57:00,73.6,69.8,29.94,NE,45,2.0,4.0,88,0.00,,,2.65,meteohub,2013-05-02 15:57:00,
2013-05-02 11:58:00,73.6,69.8,29.95,NE,45,2.0,4.0,88,0.00,,,2.65,meteohub,2013-05-02 15:58:00,
2013-05-02 11:59:00,73.6,69.8,29.95,NE,45,2.0,4.0,88,0.00,,,2.65,meteohub,2013-05-02 15:59:00,
2013-05-02 12:02:00,73.6,69.8,29.95,North,0,2.0,4.0,88,0.00,,,2.65,meteohub,2013-05-02 16:02:00,
2013-05-02 12:03:00,73.6,69.8,29.95,NW,315,2.0,4.0,88,0.00,,,2.65,meteohub,2013-05-02 16:03:00,
2013-05-02 12:04:00,73.6,69.8,29.95,North,0,3.0,4.0,88,0.00,,,2.65,meteohub,2013-05-02 16:04:00,
2013-05-02 12:07:00,73.8,70.0,29.95,East,90,3.0,4.0,88,0.00,,,2.65,meteohub,2013-05-02 16:07:00,
2013-05-02 12:09:00,73.9,70.2,29.95,East,90,2.0,4.0,88,0.00,,,2.65,meteohub,2013-05-02 16:09:00,
2013-05-02 12:10:00,73.9,70.2,29.95,East,90,2.0,3.0,88,0.00,,,2.65,meteohub,2013-05-02 16:10:00,
2013-05-02 12:11:00,74.1,70.3,29.94,NE,45,2.0,3.0,88,0.00,,,2.65,meteohub,2013-05-02 16:11:00,
2013-05-02 12:12:00,74.1,70.3,29.94,East,90,2.0,3.0,88,0.00,,,2.65,meteohub,2013-05-02 16:12:00,
2013-05-02 12:13:00,74.3,70.5,29.94,NE,45,2.0,3.0,88,0.00,,,2.65,meteohub,2013-05-02 16:13:00,
2013-05-02 12:15:00,74.3,70.5,29.94,North,0,2.0,3.0,88,0.00,,,2.65,meteohub,2013-05-02 16:15:00,
2013-05-02 12:16:00,74.3,70.5,29.94,NE,45,2.0,3.0,88,0.00,,,2.65,meteohub,2013-05-02 16:16:00,
2013-05-02 12:17:00,74.3,70.5,29.94,NE,45,2.0,3.0,88,0.00,,,2.65,meteohub,2013-05-02 16:17:00,
2013-05-02 12:18:00,74.3,70.5,29.94,North,0,2.0,3.0,88,0.00,,,2.65,meteohub,2013-05-02 16:18:00,
2013-05-02 12:22:00,74.3,70.5,29.94,East,90,3.0,3.0,88,0.00,,,2.65,meteohub,2013-05-02 16:22:00,
2013-05-02 12:23:00,74.7,70.9,29.94,SE,135,4.0,4.0,88,0.00,,,2.65,meteohub,2013-05-02 16:23:00,
2013-05-02 12:24:00,74.7,70.9,29.94,SE,135,4.0,4.0,88,0.00,,,2.65,meteohub,2013-05-02 16:24:00,
2013-05-02 12:25:00,75.2,71.1,29.94,East,90,4.0,4.0,87,0.00,,,2.65,meteohub,2013-05-02 16:25:00,
2013-05-02 12:27:00,75.6,71.4,29.94,NE,45,2.0,3.0,87,0.00,,,2.65,meteohub,2013-05-02 16:27:00,
2013-05-02 12:29:00,76.1,71.6,29.93,East,90,3.0,3.0,86,0.00,,,2.65,meteohub,2013-05-02 16:29:00,
2013-05-02 12:30:00,76.3,71.8,29.93,East,90,4.0,4.0,86,0.00,,,2.65,meteohub,2013-05-02 16:30:00,
2013-05-02 12:31:00,76.6,71.8,29.93,South,180,3.0,4.0,85,0.00,,,2.65,meteohub,2013-05-02 16:31:00,
2013-05-02 12:32:00,76.6,71.8,29.93,South,180,3.0,4.0,85,0.00,,,2.65,meteohub,2013-05-02 16:32:00,
2013-05-02 12:34:00,76.8,72.0,29.93,NE,45,1.0,4.0,85,0.00,,,2.65,meteohub,2013-05-02 16:34:00,
2013-05-02 12:36:00,77.0,71.4,29.93,NE,45,2.0,4.0,83,0.00,,,2.65,meteohub,2013-05-02 16:36:00,
2013-05-02 12:37:00,77.0,71.4,29.93,NE,45,2.0,4.0,83,0.00,,,2.65,meteohub,2013-05-02 16:37:00,
2013-05-02 12:38:00,77.0,71.4,29.93,East,90,4.0,4.0,83,0.00,,,2.65,meteohub,2013-05-02 16:38:00,
2013-05-02 12:40:00,77.0,71.4,29.93,NE,45,3.0,4.0,83,0.00,,,2.65,meteohub,2013-05-02 16:40:00,
2013-05-02 12:43:00,77.2,71.6,29.92,NE,45,4.0,4.0,83,0.00,,,2.65,meteohub,2013-05-02 16:43:00,
2013-05-02 12:44:00,77.2,71.6,29.92,North,0,2.0,4.0,83,0.00,,,2.65,meteohub,2013-05-02 16:44:00,
2013-05-02 12:46:00,77.2,71.6,29.93,SE,135,2.0,4.0,83,0.00,,,2.65,meteohub,2013-05-02 16:46:00,
2013-05-02 12:48:00,77.4,71.8,29.92,SE,135,3.0,4.0,83,0.00,,,2.65,meteohub,2013-05-02 16:48:00,
2013-05-02 12:50:00,77.4,71.8,29.92,SE,135,3.0,4.0,83,0.00,,,2.65,meteohub,2013-05-02 16:50:00,
2013-05-02 12:51:00,77.4,71.8,29.92,SE,135,3.0,4.0,83,0.00,,,2.65,meteohub,2013-05-02 16:51:00,
2013-05-02 12:53:00,77.4,71.4,29.92,East,90,3.0,4.0,82,0.00,,,2.65,meteohub,2013-05-02 16:53:00,
2013-05-02 12:54:00,77.4,71.4,29.92,East,90,2.0,4.0,82,0.00,,,2.65,meteohub,2013-05-02 16:54:00,
2013-05-02 12:56:00,77.2,71.2,29.92,NE,45,2.0,4.0,82,0.00,,,2.65,meteohub,2013-05-02 16:56:00,
2013-05-02 12:57:00,77.2,71.2,29.92,East,90,2.0,4.0,82,0.00,,,2.65,meteohub,2013-05-02 16:57:00,
2013-05-02 13:00:00,77.2,71.2,29.92,East,90,2.0,4.0,82,0.00,,,2.65,meteohub,2013-05-02 17:00:00,
2013-05-02 13:01:00,77.4,71.4,29.92,East,90,2.0,4.0,82,0.00,,,2.65,meteohub,2013-05-02 17:01:00,
2013-05-02 13:02:00,77.4,71.4,29.91,East,90,4.0,4.0,82,0.00,,,2.65,meteohub,2013-05-02 17:02:00,
2013-05-02 13:06:00,77.2,71.2,29.91,SE,135,5.0,5.0,82,0.00,,,2.65,meteohub,2013-05-02 17:06:00,
2013-05-02 13:07:00,77.2,71.2,29.91,SE,135,5.0,5.0,82,0.00,,,2.65,meteohub,2013-05-02 17:07:00,
2013-05-02 13:11:00,77.2,71.2,29.91,East,90,2.0,5.0,82,0.00,,,2.65,meteohub,2013-05-02 17:11:00,
2013-05-02 13:12:00,77.0,71.1,29.91,NE,45,3.0,5.0,82,0.00,,,2.65,meteohub,2013-05-02 17:12:00,
2013-05-02 13:13:00,77.2,71.6,29.91,NE,45,3.0,5.0,83,0.00,,,2.65,meteohub,2013-05-02 17:13:00,
2013-05-02 13:14:00,77.2,71.6,29.91,East,90,4.0,5.0,83,0.00,,,2.65,meteohub,2013-05-02 17:14:00,
2013-05-02 13:17:00,77.2,71.2,29.91,SE,135,4.0,5.0,82,0.00,,,2.65,meteohub,2013-05-02 17:17:00,
2013-05-02 13:18:00,77.2,71.2,29.91,East,90,5.0,5.0,82,0.00,,,2.65,meteohub,2013-05-02 17:18:00,
2013-05-02 13:20:00,77.0,71.1,29.91,NE,45,7.0,7.0,82,0.00,,,2.65,meteohub,2013-05-02 17:20:00,
2013-05-02 13:21:00,77.0,71.1,29.91,NW,315,2.0,5.0,82,0.00,,,2.65,meteohub,2013-05-02 17:21:00,
2013-05-02 13:23:00,76.8,71.2,29.91,SE,135,3.0,5.0,83,0.00,,,2.65,meteohub,2013-05-02 17:23:00,
2013-05-02 13:25:00,76.8,71.6,29.91,SE,135,4.0,7.0,84,0.00,,,2.65,meteohub,2013-05-02 17:25:00,
2013-05-02 13:26:00,76.8,71.6,29.91,SE,135,4.0,7.0,84,0.00,,,2.65,meteohub,2013-05-02 17:26:00,
2013-05-02 13:27:00,76.8,71.6,29.91,SE,135,5.0,7.0,84,0.00,,,2.65,meteohub,2013-05-02 17:27:00,
2013-05-02 13:30:00,76.5,71.2,29.91,East,90,3.0,8.0,84,0.00,,,2.65,meteohub,2013-05-02 17:30:00,
2013-05-02 13:31:00,76.5,71.2,29.91,East,90,3.0,8.0,84,0.00,,,2.65,meteohub,2013-05-02 17:31:00,
2013-05-02 13:32:00,76.5,71.2,29.90,NE,45,3.0,8.0,84,0.00,,,2.65,meteohub,2013-05-02 17:32:00,
2013-05-02 13:33:00,76.5,71.2,29.90,NE,45,3.0,8.0,84,0.00,,,2.65,meteohub,2013-05-02 17:33:00,
2013-05-02 13:35:00,76.6,71.4,29.91,SE,135,5.0,8.0,84,0.00,,,2.65,meteohub,2013-05-02 17:35:00,
2013-05-02 13:37:00,76.6,71.4,29.91,NE,45,4.0,8.0,84,0.00,,,2.65,meteohub,2013-05-02 17:37:00,
2013-05-02 13:38:00,76.8,71.6,29.91,SE,135,3.0,8.0,84,0.00,,,2.65,meteohub,2013-05-02 17:38:00,
2013-05-02 13:41:00,76.8,71.6,29.91,SE,135,4.0,8.0,84,0.00,,,2.65,meteohub,2013-05-02 17:41:00,
2013-05-02 13:42:00,77.0,71.4,29.91,East,90,3.0,8.0,83,0.00,,,2.65,meteohub,2013-05-02 17:42:00,
2013-05-02 13:44:00,77.0,71.4,29.91,SE,135,3.0,8.0,83,0.00,,,2.65,meteohub,2013-05-02 17:44:00,
2013-05-02 13:45:00,77.0,71.4,29.91,East,90,3.0,8.0,83,0.00,,,2.65,meteohub,2013-05-02 17:45:00,
2013-05-02 13:46:00,77.2,71.6,29.91,SE,135,4.0,8.0,83,0.00,,,2.65,meteohub,2013-05-02 17:46:00,
2013-05-02 13:47:00,77.2,71.6,29.91,NW,315,2.0,8.0,83,0.00,,,2.65,meteohub,2013-05-02 17:47:00,
2013-05-02 13:51:00,77.4,71.8,29.90,SE,135,3.0,8.0,83,0.00,,,2.65,meteohub,2013-05-02 17:51:00,
2013-05-02 13:52:00,77.4,71.8,29.90,SE,135,3.0,8.0,83,0.00,,,2.65,meteohub,2013-05-02 17:52:00,
2013-05-02 13:53:00,77.5,72.0,29.90,NE,45,2.0,8.0,83,0.00,,,2.65,meteohub,2013-05-02 17:53:00,
2013-05-02 13:57:00,77.7,72.1,29.90,East,90,4.0,4.0,83,0.01,,,2.66,meteohub,2013-05-02 17:57:00,
2013-05-02 13:58:00,77.7,71.8,29.91,East,90,2.0,4.0,82,0.01,,,2.66,meteohub,2013-05-02 17:58:00,
2013-05-02 14:00:00,77.7,71.8,29.90,NE,45,3.0,4.0,82,0.01,,,2.66,meteohub,2013-05-02 18:00:00,
2013-05-02 14:02:00,77.7,71.8,29.90,SE,135,2.0,5.0,82,0.01,,,2.66,meteohub,2013-05-02 18:02:00,
2013-05-02 14:03:00,77.7,71.4,29.90,SE,135,1.0,5.0,81,0.01,,,2.66,meteohub,2013-05-02 18:03:00,
2013-05-02 14:05:00,77.5,71.6,29.90,NE,45,2.0,5.0,82,0.01,,,2.66,meteohub,2013-05-02 18:05:00,
2013-05-02 14:07:00,77.5,71.6,29.90,SW,225,5.0,5.0,82,0.01,,,2.66,meteohub,2013-05-02 18:07:00,
2013-05-02 14:08:00,77.5,71.6,29.90,SW,225,5.0,5.0,82,0.01,,,2.66,meteohub,2013-05-02 18:08:00,
2013-05-02 14:10:00,77.4,70.7,29.90,East,90,2.0,5.0,80,0.01,,,2.66,meteohub,2013-05-02 18:10:00,
2013-05-02 14:13:00,77.4,71.4,29.90,SE,135,1.0,5.0,82,0.01,,,2.66,meteohub,2013-05-02 18:13:00,
2013-05-02 14:15:00,77.5,72.0,29.90,East,90,2.0,5.0,83,0.02,,,2.67,meteohub,2013-05-02 18:15:00,
2013-05-02 14:17:00,77.7,72.1,29.89,South,180,2.0,5.0,83,0.02,,,2.67,meteohub,2013-05-02 18:17:00,
2013-05-02 14:18:00,77.7,72.1,29.90,SW,225,3.0,5.0,83,0.02,,,2.67,meteohub,2013-05-02 18:18:00,
2013-05-02 14:19:00,77.9,71.6,29.90,NW,315,2.0,5.0,81,0.02,,,2.67,meteohub,2013-05-02 18:19:00,
2013-05-02 14:21:00,77.9,71.6,29.90,West,270,6.0,6.0,81,0.02,,,2.67,meteohub,2013-05-02 18:21:00,
2013-05-02 14:24:00,77.7,70.7,29.90,West,270,2.0,5.0,79,0.02,,,2.67,meteohub,2013-05-02 18:24:00,
2013-05-02 14:25:00,77.7,70.7,29.90,SW,225,4.0,5.0,79,0.02,,,2.67,meteohub,2013-05-02 18:25:00,
2013-05-02 14:26:00,77.7,71.1,29.90,SW,225,4.0,6.0,80,0.04,,,2.68,meteohub,2013-05-02 18:26:00,
2013-05-02 14:27:00,77.5,70.9,29.89,SW,225,3.0,6.0,80,0.04,,,2.68,meteohub,2013-05-02 18:27:00,
2013-05-02 14:29:00,77.5,71.2,29.90,SE,135,3.0,6.0,81,0.04,,,2.68,meteohub,2013-05-02 18:29:00,
2013-05-02 14:30:00,77.5,71.2,29.90,South,180,2.0,6.0,81,0.04,,,2.68,meteohub,2013-05-02 18:30:00,
2013-05-02 14:32:00,77.5,71.2,29.89,SE,135,1.0,6.0,81,0.04,,,2.68,meteohub,2013-05-02 18:32:00,
2013-05-02 14:33:00,77.7,71.8,29.89,SE,135,1.0,6.0,82,0.04,,,2.68,meteohub,2013-05-02 18:33:00,
2013-05-02 14:35:00,77.9,72.0,29.89,SW,225,2.0,6.0,82,0.04,,,2.68,meteohub,2013-05-02 18:35:00,
2013-05-02 14:37:00,77.9,71.2,29.89,SE,135,2.0,6.0,80,0.04,,,2.68,meteohub,2013-05-02 18:37:00,
2013-05-02 14:39:00,77.9,71.6,29.89,South,180,3.0,6.0,81,0.04,,,2.68,meteohub,2013-05-02 18:39:00,
2013-05-02 14:40:00,78.1,71.4,29.89,South,180,3.0,4.0,80,0.06,,,2.70,meteohub,2013-05-02 18:40:00,
2013-05-02 14:43:00,77.9,71.2,29.89,West,270,3.0,4.0,80,0.06,,,2.70,meteohub,2013-05-02 18:43:00,
2013-05-02 14:44:00,77.9,71.2,29.89,SW,225,2.0,4.0,80,0.06,,,2.70,meteohub,2013-05-02 18:44:00,
2013-05-02 14:45:00,77.9,71.2,29.88,SE,135,4.0,4.0,80,0.18,,,2.82,meteohub,2013-05-02 18:45:00,
2013-05-02 14:48:00,78.1,71.4,29.89,East,90,3.0,4.0,80,0.18,,,2.82,meteohub,2013-05-02 18:48:00,
2013-05-02 14:51:00,78.3,72.0,29.88,SE,135,2.0,4.0,81,0.20,,,2.85,meteohub,2013-05-02 18:51:00,
2013-05-02 14:52:00,78.4,72.1,29.89,NW,315,3.0,4.0,81,0.20,,,2.85,meteohub,2013-05-02 18:52:00,
2013-05-02 14:53:00,78.6,72.3,29.88,SW,225,2.0,4.0,81,0.20,,,2.85,meteohub,2013-05-02 18:53:00,
2013-05-02 14:56:00,79.0,72.0,29.88,West,270,2.0,4.0,79,0.25,,,2.91,meteohub,2013-05-02 18:56:00,
2013-05-02 14:57:00,79.2,72.1,29.88,South,180,2.0,4.0,79,0.25,,,2.91,meteohub,2013-05-02 18:57:00,
2013-05-02 14:59:00,79.2,72.1,29.88,SW,225,4.0,4.0,79,0.25,,,2.91,meteohub,2013-05-02 18:59:00,
2013-05-02 15:01:00,79.3,72.0,29.88,SE,135,2.0,4.0,78,0.32,,,2.98,meteohub,2013-05-02 19:01:00,
2013-05-02 15:04:00,79.3,71.4,29.88,SW,225,4.0,4.0,77,0.32,,,2.98,meteohub,2013-05-02 19:04:00,
2013-05-02 15:05:00,79.5,71.6,29.88,SW,225,4.0,4.0,77,0.44,,,3.09,meteohub,2013-05-02 19:05:00,
2013-05-02 15:10:00,79.5,70.9,29.88,SE,135,4.0,5.0,75,0.46,,,3.13,meteohub,2013-05-02 19:10:00,
2013-05-02 15:11:00,79.5,71.2,29.88,SW,225,2.0,5.0,76,0.46,,,3.13,meteohub,2013-05-02 19:11:00,
2013-05-02 15:12:00,79.5,70.9,29.88,SW,225,5.0,5.0,75,0.46,,,3.13,meteohub,2013-05-02 19:12:00,
2013-05-02 15:13:00,79.3,70.7,29.88,South,180,4.0,5.0,75,0.46,,,3.13,meteohub,2013-05-02 19:13:00,
2013-05-02 15:17:00,79.3,71.1,29.88,East,90,4.0,5.0,76,0.46,,,3.13,meteohub,2013-05-02 19:17:00,
2013-05-02 15:18:00,79.5,71.6,29.88,West,270,8.0,8.0,77,0.46,,,3.13,meteohub,2013-05-02 19:18:00,
2013-05-02 15:19:00,79.5,71.2,29.88,West,270,3.0,5.0,76,0.46,,,3.13,meteohub,2013-05-02 19:19:00,
2013-05-02 15:23:00,79.9,71.6,29.88,SW,225,8.0,8.0,76,0.51,,,3.19,meteohub,2013-05-02 19:23:00,
2013-05-02 15:24:00,79.9,71.2,29.88,NW,315,7.0,8.0,75,0.51,,,3.19,meteohub,2013-05-02 19:24:00,
2013-05-02 15:25:00,79.9,71.2,29.88,West,270,8.0,8.0,75,0.54,,,3.22,meteohub,2013-05-02 19:25:00,
2013-05-02 15:27:00,79.7,71.1,29.88,West,270,4.0,8.0,75,0.54,,,3.22,meteohub,2013-05-02 19:27:00,
2013-05-02 15:29:00,79.9,71.6,29.88,West,270,6.0,8.0,76,0.54,,,3.22,meteohub,2013-05-02 19:29:00,
2013-05-02 15:31:00,79.9,71.2,29.88,North,0,3.0,8.0,75,0.57,,,3.25,meteohub,2013-05-02 19:31:00,
2013-05-02 15:32:00,79.9,71.2,29.88,SE,135,4.0,8.0,75,0.57,,,3.25,meteohub,2013-05-02 19:32:00,
2013-05-02 15:33:00,80.2,72.0,29.88,SW,225,5.0,8.0,76,0.57,,,3.25,meteohub,2013-05-02 19:33:00,
2013-05-02 15:35:00,80.6,71.6,29.87,SE,135,2.0,8.0,74,0.57,,,3.25,meteohub,2013-05-02 19:35:00,
2013-05-02 15:36:00,81.0,71.4,29.88,West,270,4.0,8.0,73,0.57,,,3.25,meteohub,2013-05-02 19:36:00,
2013-05-02 15:38:00,81.3,71.4,29.88,SW,225,5.0,8.0,72,0.57,,,3.25,meteohub,2013-05-02 19:38:00,
2013-05-02 15:39:00,81.5,71.2,29.88,SW,225,4.0,8.0,71,0.57,,,3.25,meteohub,2013-05-02 19:39:00,
2013-05-02 15:40:00,81.5,71.2,29.88,SW,225,4.0,8.0,71,0.54,,,3.25,meteohub,2013-05-02 19:40:00,
2013-05-02 15:42:00,81.0,70.7,29.88,SW,225,7.0,8.0,71,0.54,,,3.25,meteohub,2013-05-02 19:42:00,
2013-05-02 15:43:00,81.0,70.7,29.88,SW,225,7.0,8.0,71,0.54,,,3.25,meteohub,2013-05-02 19:43:00,
2013-05-02 15:44:00,80.8,70.5,29.88,South,180,4.0,8.0,71,0.54,,,3.25,meteohub,2013-05-02 19:44:00,
2013-05-02 15:45:00,80.8,70.9,29.88,SW,225,4.0,9.0,72,0.43,,,3.25,meteohub,2013-05-02 19:45:00,
2013-05-02 15:48:00,81.1,71.2,29.87,SW,225,5.0,9.0,72,0.43,,,3.25,meteohub,2013-05-02 19:48:00,
2013-05-02 15:49:00,81.1,70.9,29.87,South,180,6.0,9.0,71,0.43,,,3.25,meteohub,2013-05-02 19:49:00,
2013-05-02 15:50:00,81.1,70.3,29.88,West,270,5.0,9.0,70,0.40,,,3.25,meteohub,2013-05-02 19:50:00,
2013-05-02 15:51:00,81.1,70.3,29.87,SW,225,6.0,9.0,70,0.40,,,3.25,meteohub,2013-05-02 19:51:00,
2013-05-02 15:54:00,81.1,70.9,29.88,West,270,5.0,9.0,71,0.40,,,3.25,meteohub,2013-05-02 19:54:00,
2013-05-02 15:55:00,81.3,71.1,29.87,SW,225,8.0,8.0,71,0.34,,,3.25,meteohub,2013-05-02 19:55:00,
2013-05-02 15:58:00,81.3,70.5,29.88,West,270,8.0,8.0,70,0.34,,,3.25,meteohub,2013-05-02 19:58:00,
2013-05-02 15:59:00,81.1,71.2,29.88,SW,225,8.0,8.0,72,0.34,,,3.25,meteohub,2013-05-02 19:59:00,
2013-05-02 16:00:00,81.1,71.2,29.88,SW,225,8.0,8.0,72,0.27,,,3.25,meteohub,2013-05-02 20:00:00,
2013-05-02 16:02:00,81.0,71.1,29.88,SW,225,8.0,8.0,72,0.27,,,3.25,meteohub,2013-05-02 20:02:00,
2013-05-02 16:03:00,81.0,71.1,29.88,SW,225,8.0,8.0,72,0.27,,,3.25,meteohub,2013-05-02 20:03:00,
2013-05-02 16:04:00,80.8,70.9,29.88,West,270,5.0,8.0,72,0.27,,,3.25,meteohub,2013-05-02 20:04:00,
2013-05-02 16:05:00,80.8,70.9,29.88,NW,315,8.0,8.0,72,0.12,,,3.25,meteohub,2013-05-02 20:05:00,
2013-05-02 16:07:00,80.6,70.7,29.88,South,180,6.0,8.0,72,0.12,,,3.25,meteohub,2013-05-02 20:07:00,
2013-05-02 16:08:00,80.4,70.9,29.87,West,270,7.0,8.0,73,0.12,,,3.25,meteohub,2013-05-02 20:08:00,
2013-05-02 16:11:00,80.4,70.9,29.87,SW,225,8.0,10.0,73,0.12,,,3.25,meteohub,2013-05-02 20:11:00,
2013-05-02 16:12:00,80.2,70.9,29.87,SW,225,6.0,10.0,73,0.12,,,3.25,meteohub,2013-05-02 20:12:00,
2013-05-02 16:13:00,80.2,70.9,29.87,SW,225,5.0,10.0,73,0.12,,,3.25,meteohub,2013-05-02 20:13:00,
2013-05-02 16:16:00,79.9,70.5,29.86,SW,225,7.0,10.0,73,0.12,,,3.25,meteohub,2013-05-02 20:16:00,
2013-05-02 16:17:00,79.9,70.5,29.86,West,270,5.0,10.0,73,0.12,,,3.25,meteohub,2013-05-02 20:17:00,
2013-05-02 16:18:00,79.9,70.5,29.86,West,270,5.0,10.0,73,0.12,,,3.25,meteohub,2013-05-02 20:18:00,
2013-05-02 16:20:00,79.9,70.5,29.86,SW,225,4.0,10.0,73,0.12,,,3.25,meteohub,2013-05-02 20:20:00,
2013-05-02 16:21:00,79.9,70.5,29.86,SW,225,4.0,8.0,73,0.02,,,3.25,meteohub,2013-05-02 20:21:00,
2013-05-02 16:22:00,79.9,70.5,29.86,SW,225,4.0,8.0,73,0.02,,,3.25,meteohub,2013-05-02 20:22:00,
2013-05-02 16:25:00,79.9,70.9,29.86,West,270,5.0,8.0,74,0.00,,,3.25,meteohub,2013-05-02 20:25:00,
2013-05-02 16:27:00,79.9,70.9,29.86,SW,225,8.0,8.0,74,0.00,,,3.25,meteohub,2013-05-02 20:27:00,
2013-05-02 16:28:00,79.7,70.3,29.86,NW,315,6.0,8.0,73,0.00,,,3.25,meteohub,2013-05-02 20:28:00,
2013-05-02 16:29:00,79.7,70.3,29.86,NW,315,6.0,8.0,73,0.00,,,3.25,meteohub,2013-05-02 20:29:00,
2013-05-02 16:30:00,79.7,70.7,29.86,SW,225,8.0,8.0,74,0.00,,,3.25,meteohub,2013-05-02 20:30:00,
2013-05-02 16:33:00,79.9,70.9,29.86,SW,225,5.0,8.0,74,0.00,,,3.25,meteohub,2013-05-02 20:33:00,
2013-05-02 16:34:00,79.9,71.2,29.86,WSW,248,8.0,8.0,75,0.00,,,3.25,meteohub,2013-05-02 20:34:00,
2013-05-02 16:35:00,79.9,71.2,29.86,WSW,248,8.0,8.0,75,0.00,,,3.25,meteohub,2013-05-02 20:35:00,
2013-05-02 16:36:00,79.7,70.7,29.85,South,180,7.0,8.0,74,0.00,,,3.25,meteohub,2013-05-02 20:36:00,
2013-05-02 16:40:00,79.5,70.9,29.85,SW,225,8.0,8.0,75,0.00,,,3.25,meteohub,2013-05-02 20:40:00,
2013-05-02 16:41:00,79.3,70.7,29.85,NW,315,4.0,9.0,75,0.00,,,3.25,meteohub,2013-05-02 20:41:00,
2013-05-02 16:45:00,79.2,70.5,29.85,SW,225,5.0,9.0,75,0.00,,,3.25,meteohub,2013-05-02 20:45:00,
2013-05-02 16:46:00,79.0,70.7,29.85,NNW,338,8.0,9.0,76,0.00,,,3.25,meteohub,2013-05-02 20:46:00,
2013-05-02 16:47:00,78.8,70.5,29.85,West,270,4.0,9.0,76,0.00,,,3.25,meteohub,2013-05-02 20:47:00,
2013-05-02 16:48:00,78.8,71.4,29.85,South,180,3.0,9.0,78,0.00,,,3.25,meteohub,2013-05-02 20:48:00,
2013-05-02 16:50:00,78.8,71.4,29.85,NW,315,3.0,8.0,78,0.00,,,3.25,meteohub,2013-05-02 20:50:00,
2013-05-02 16:51:00,79.2,71.2,29.85,SW,225,6.0,8.0,77,0.00,,,3.25,meteohub,2013-05-02 20:51:00,
2013-05-02 16:52:00,79.2,71.2,29.85,SW,225,6.0,8.0,77,0.00,,,3.25,meteohub,2013-05-02 20:52:00,
2013-05-02 16:54:00,79.3,71.1,29.85,SW,225,4.0,8.0,76,0.00,,,3.25,meteohub,2013-05-02 20:54:00,
2013-05-02 16:55:00,79.2,71.2,29.85,West,270,7.0,8.0,77,0.00,,,3.25,meteohub,2013-05-02 20:55:00,
2013-05-02 16:57:00,79.2,70.9,29.85,SW,225,8.0,8.0,76,0.00,,,3.25,meteohub,2013-05-02 20:57:00,
2013-05-02 17:00:00,78.6,71.6,29.85,SW,225,4.0,8.0,79,0.00,,,3.25,meteohub,2013-05-02 21:00:00,
2013-05-02 17:02:00,78.6,71.6,29.85,SW,225,8.0,8.0,79,0.00,,,3.25,meteohub,2013-05-02 21:02:00,
2013-05-02 17:03:00,78.4,71.4,29.85,SE,135,4.0,8.0,79,0.00,,,3.25,meteohub,2013-05-02 21:03:00,
2013-05-02 17:04:00,78.4,71.4,29.85,SE,135,4.0,8.0,79,0.00,,,3.25,meteohub,2013-05-02 21:04:00,
2013-05-02 17:06:00,78.6,72.0,29.85,WNW,293,8.0,8.0,80,0.00,,,3.25,meteohub,2013-05-02 21:06:00,
2013-05-02 17:08:00,78.6,71.6,29.85,SW,225,5.0,8.0,79,0.00,,,3.25,meteohub,2013-05-02 21:08:00,
2013-05-02 17:09:00,78.8,71.4,29.85,NW,315,4.0,8.0,78,0.00,,,3.25,meteohub,2013-05-02 21:09:00,
2013-05-02 17:11:00,79.0,71.6,29.84,WNW,293,7.0,8.0,78,0.00,,,3.25,meteohub,2013-05-02 21:11:00,
2013-05-02 17:12:00,79.2,71.8,29.85,SW,225,5.0,8.0,78,0.00,,,3.25,meteohub,2013-05-02 21:12:00,
2013-05-02 17:15:00,79.7,71.8,29.84,NW,315,6.0,8.0,77,0.00,,,3.25,meteohub,2013-05-02 21:15:00,
2013-05-02 17:16:00,79.9,71.2,29.84,NW,315,4.0,8.0,75,0.00,,,3.25,meteohub,2013-05-02 21:16:00,
2013-05-02 17:17:00,79.9,71.2,29.84,NW,315,4.0,8.0,75,0.00,,,3.25,meteohub,2013-05-02 21:17:00,
2013-05-02 17:20:00,80.2,71.6,29.85,SW,225,5.0,8.0,75,0.00,,,3.25,meteohub,2013-05-02 21:20:00,
2013-05-02 17:22:00,80.2,71.2,29.85,West,270,4.0,8.0,74,0.00,,,3.25,meteohub,2013-05-02 21:22:00,
2013-05-02 17:23:00,80.2,71.2,29.85,SW,225,6.0,8.0,74,0.00,,,3.25,meteohub,2013-05-02 21:23:00,
2013-05-02 17:24:00,80.2,71.2,29.85,NW,315,4.0,8.0,74,0.00,,,3.25,meteohub,2013-05-02 21:24:00,
2013-05-02 17:26:00,80.2,71.2,29.84,SW,225,5.0,7.0,74,0.00,,,3.25,meteohub,2013-05-02 21:26:00,
2013-05-02 17:28:00,80.2,71.6,29.84,West,270,2.0,7.0,75,0.00,,,3.25,meteohub,2013-05-02 21:28:00,
2013-05-02 17:29:00,80.2,71.6,29.84,NW,315,3.0,7.0,75,0.00,,,3.25,meteohub,2013-05-02 21:29:00,
2013-05-02 17:30:00,80.6,71.6,29.84,SW,225,4.0,7.0,74,0.00,,,3.25,meteohub,2013-05-02 21:30:00,
2013-05-02 17:31:00,80.8,71.8,29.84,NW,315,7.0,7.0,74,0.00,,,3.25,meteohub,2013-05-02 21:31:00,
2013-05-02 17:35:00,80.2,71.2,29.84,West,270,5.0,7.0,74,0.00,,,3.25,meteohub,2013-05-02 21:35:00,
2013-05-02 17:36:00,80.2,71.2,29.84,NW,315,5.0,8.0,74,0.00,,,3.25,meteohub,2013-05-02 21:36:00,
2013-05-02 17:38:00,79.9,70.9,29.84,West,270,8.0,8.0,74,0.00,,,3.25,meteohub,2013-05-02 21:38:00,
2013-05-02 17:40:00,79.9,71.2,29.84,West,270,5.0,8.0,75,0.00,,,3.25,meteohub,2013-05-02 21:40:00,
2013-05-02 17:42:00,79.9,71.2,29.84,SW,225,6.0,8.0,75,0.00,,,3.25,meteohub,2013-05-02 21:42:00,
2013-05-02 17:43:00,79.9,71.2,29.84,SW,225,5.0,8.0,75,0.00,,,3.25,meteohub,2013-05-02 21:43:00,
2013-05-02 17:46:00,79.9,71.2,29.84,SW,225,7.0,8.0,75,0.00,,,3.25,meteohub,2013-05-02 21:46:00,
2013-05-02 17:47:00,79.9,71.2,29.84,SW,225,6.0,8.0,75,0.00,,,3.25,meteohub,2013-05-02 21:47:00,
2013-05-02 17:48:00,79.9,71.2,29.84,NW,315,4.0,8.0,75,0.00,,,3.25,meteohub,2013-05-02 21:48:00,
2013-05-02 17:51:00,79.9,71.2,29.84,NW,315,2.0,8.0,75,0.00,,,3.25,meteohub,2013-05-02 21:51:00,
2013-05-02 17:52:00,79.9,71.2,29.84,West,270,2.0,8.0,75,0.00,,,3.25,meteohub,2013-05-02 21:52:00,
2013-05-02 17:54:00,80.2,71.6,29.84,West,270,4.0,8.0,75,0.00,,,3.25,meteohub,2013-05-02 21:54:00,
2013-05-02 17:56:00,80.4,71.4,29.84,North,0,5.0,8.0,74,0.00,,,3.25,meteohub,2013-05-02 21:56:00,
2013-05-02 17:57:00,80.2,71.2,29.84,NW,315,4.0,8.0,74,0.00,,,3.25,meteohub,2013-05-02 21:57:00,
2013-05-02 18:00:00,80.2,71.2,29.84,SW,225,3.0,8.0,74,0.00,,,3.25,meteohub,2013-05-02 22:00:00,
2013-05-02 18:01:00,80.4,71.4,29.84,SW,225,4.0,8.0,74,0.00,,,3.25,meteohub,2013-05-02 22:01:00,
2013-05-02 18:03:00,80.6,71.1,29.84,West,270,4.0,8.0,73,0.00,,,3.25,meteohub,2013-05-02 22:03:00,
2013-05-02 18:05:00,80.6,70.7,29.84,West,270,5.0,8.0,72,0.00,,,3.25,meteohub,2013-05-02 22:05:00,
2013-05-02 18:06:00,80.4,70.9,29.84,SW,225,5.0,8.0,73,0.00,,,3.25,meteohub,2013-05-02 22:06:00,
2013-05-02 18:07:00,80.2,70.9,29.84,West,270,5.0,8.0,73,0.00,,,3.25,meteohub,2013-05-02 22:07:00,
2013-05-02 18:08:00,80.2,70.9,29.84,West,270,5.0,8.0,73,0.00,,,3.25,meteohub,2013-05-02 22:08:00,
2013-05-02 18:09:00,79.9,70.9,29.84,SW,225,4.0,8.0,74,0.00,,,3.25,meteohub,2013-05-02 22:09:00,
2013-05-02 18:13:00,79.3,70.7,29.84,NW,315,4.0,8.0,75,0.00,,,3.25,meteohub,2013-05-02 22:13:00,
2013-05-02 18:14:00,79.2,70.5,29.84,West,270,4.0,8.0,75,0.00,,,3.25,meteohub,2013-05-02 22:14:00,
2013-05-02 18:16:00,78.8,70.5,29.84,NW,315,2.0,6.0,76,0.00,,,3.25,meteohub,2013-05-02 22:16:00,
2013-05-02 18:17:00,78.8,70.5,29.84,NW,315,2.0,6.0,76,0.00,,,3.25,meteohub,2013-05-02 22:17:00,
2013-05-02 18:20:00,78.4,71.1,29.84,South,180,8.0,8.0,78,0.00,,,3.25,meteohub,2013-05-02 22:20:00,
2013-05-02 18:21:00,78.3,70.9,29.84,NW,315,7.0,7.0,78,0.00,,,3.25,meteohub,2013-05-02 22:21:00,
2013-05-02 18:23:00,78.1,70.7,29.84,SW,225,5.0,6.0,78,0.00,,,3.25,meteohub,2013-05-02 22:23:00,
2013-05-02 18:24:00,77.9,70.5,29.84,West,270,4.0,6.0,78,0.00,,,3.25,meteohub,2013-05-02 22:24:00,
2013-05-02 18:26:00,77.9,70.5,29.84,West,270,3.0,8.0,78,0.00,,,3.25,meteohub,2013-05-02 22:26:00,
2013-05-02 18:27:00,77.9,70.5,29.84,West,270,3.0,8.0,78,0.00,,,3.25,meteohub,2013-05-02 22:27:00,
2013-05-02 18:29:00,78.1,70.7,29.84,North,0,3.0,8.0,78,0.00,,,3.25,meteohub,2013-05-02 22:29:00,
2013-05-02 18:31:00,77.9,70.5,29.84,NW,315,4.0,8.0,78,0.00,,,3.25,meteohub,2013-05-02 22:31:00,
2013-05-02 18:33:00,77.9,70.5,29.84,West,270,4.0,8.0,78,0.00,,,3.25,meteohub,2013-05-02 22:33:00,
2013-05-02 18:34:00,77.9,70.5,29.84,WNW,293,4.0,8.0,78,0.00,,,3.25,meteohub,2013-05-02 22:34:00,
2013-05-02 18:38:00,77.7,70.7,29.84,NW,315,5.0,8.0,79,0.00,,,3.25,meteohub,2013-05-02 22:38:00,
2013-05-02 18:39:00,77.7,70.7,29.84,NW,315,4.0,8.0,79,0.00,,,3.25,meteohub,2013-05-02 22:39:00,
2013-05-02 18:40:00,77.7,70.7,29.85,West,270,2.0,6.0,79,0.00,,,3.25,meteohub,2013-05-02 22:40:00,
2013-05-02 18:41:00,77.7,70.7,29.84,West,270,2.0,6.0,79,0.00,,,3.25,meteohub,2013-05-02 22:41:00,
2013-05-02 18:42:00,77.7,70.7,29.85,SW,225,4.0,6.0,79,0.00,,,3.25,meteohub,2013-05-02 22:42:00,
2013-05-02 18:43:00,77.7,70.7,29.85,West,270,7.0,7.0,79,0.00,,,3.25,meteohub,2013-05-02 22:43:00,
2013-05-02 18:47:00,77.7,70.7,29.84,SW,225,2.0,7.0,79,0.00,,,3.25,meteohub,2013-05-02 22:47:00,
2013-05-02 18:48:00,77.7,70.7,29.85,West,270,3.0,7.0,79,0.00,,,3.25,meteohub,2013-05-02 22:48:00,
2013-05-02 18:50:00,77.7,70.7,29.85,West,270,3.0,8.0,79,0.00,,,3.25,meteohub,2013-05-02 22:50:00,
2013-05-02 18:52:00,77.5,70.5,29.84,SW,225,2.0,8.0,79,0.00,,,3.25,meteohub,2013-05-02 22:52:00,
2013-05-02 18:53:00,77.5,70.9,29.84,WNW,293,5.0,8.0,80,0.00,,,3.25,meteohub,2013-05-02 22:53:00,
2013-05-02 18:56:00,77.4,70.7,29.84,West,270,7.0,8.0,80,0.00,,,3.25,meteohub,2013-05-02 22:56:00,
2013-05-02 18:58:00,77.2,70.2,29.84,North,0,2.0,8.0,79,0.00,,,3.25,meteohub,2013-05-02 22:58:00,
2013-05-02 18:59:00,77.2,70.2,29.84,NW,315,2.0,8.0,79,0.00,,,3.25,meteohub,2013-05-02 22:59:00,
2013-05-02 19:02:00,77.0,70.3,29.84,North,0,1.0,7.0,80,0.00,,,3.25,meteohub,2013-05-02 23:02:00,
2013-05-02 19:03:00,77.0,70.3,29.85,SW,225,2.0,7.0,80,0.00,,,3.25,meteohub,2013-05-02 23:03:00,
2013-05-02 19:04:00,77.0,70.3,29.84,West,270,2.0,7.0,80,0.00,,,3.25,meteohub,2013-05-02 23:04:00,
2013-05-02 19:05:00,77.0,70.3,29.84,North,0,2.0,7.0,80,0.00,,,3.25,meteohub,2013-05-02 23:05:00,
2013-05-02 19:07:00,76.8,70.9,29.84,NW,315,2.0,7.0,82,0.00,,,3.25,meteohub,2013-05-02 23:07:00,
2013-05-02 19:09:00,76.8,70.9,29.84,West,270,3.0,7.0,82,0.00,,,3.25,meteohub,2013-05-02 23:09:00,
2013-05-02 19:10:00,76.8,70.9,29.84,North,0,2.0,7.0,82,0.00,,,3.25,meteohub,2013-05-02 23:10:00,
2013-05-02 19:12:00,76.8,70.9,29.84,West,270,4.0,7.0,82,0.00,,,3.25,meteohub,2013-05-02 23:12:00,
2013-05-02 19:15:00,76.6,70.7,29.84,NE,45,1.0,5.0,82,0.00,,,3.25,meteohub,2013-05-02 23:15:00,
2013-05-02 19:16:00,76.6,70.7,29.84,North,0,2.0,5.0,82,0.00,,,3.25,meteohub,2013-05-02 23:16:00,
2013-05-02 19:17:00,76.6,70.7,29.84,NE,45,2.0,5.0,82,0.00,,,3.25,meteohub,2013-05-02 23:17:00,
2013-05-02 19:18:00,76.6,70.7,29.84,NW,315,1.0,5.0,82,0.00,,,3.25,meteohub,2013-05-02 23:18:00,
2013-05-02 19:20:00,76.6,70.7,29.84,NW,315,1.0,5.0,82,0.00,,,3.25,meteohub,2013-05-02 23:20:00,
2013-05-02 19:22:00,76.6,70.7,29.84,NW,315,1.0,5.0,82,0.00,,,3.25,meteohub,2013-05-02 23:22:00,
2013-05-02 19:23:00,76.6,70.7,29.84,NW,315,2.0,5.0,82,0.00,,,3.25,meteohub,2013-05-02 23:23:00,
2013-05-02 19:24:00,76.6,70.7,29.84,NW,315,2.0,5.0,82,0.00,,,3.25,meteohub,2013-05-02 23:24:00,
2013-05-02 19:27:00,76.6,70.7,29.84,NE,45,1.0,5.0,82,0.00,,,3.25,meteohub,2013-05-02 23:27:00,
2013-05-02 19:29:00,76.6,70.7,29.84,North,0,2.0,5.0,82,0.00,,,3.25,meteohub,2013-05-02 23:29:00,
2013-05-02 19:30:00,76.6,70.3,29.84,North,0,2.0,3.0,81,0.00,,,3.25,meteohub,2013-05-02 23:30:00,
2013-05-02 19:34:00,76.5,70.2,29.84,NE,45,2.0,3.0,81,0.00,,,3.25,meteohub,2013-05-02 23:34:00,
2013-05-02 19:37:00,76.1,69.8,29.84,NW,315,2.0,2.0,81,0.00,,,3.25,meteohub,2013-05-02 23:37:00,
2013-05-02 19:38:00,76.1,69.8,29.84,North,0,2.0,2.0,81,0.00,,,3.25,meteohub,2013-05-02 23:38:00,
2013-05-02 19:39:00,76.1,69.8,29.84,North,0,1.0,2.0,81,0.00,,,3.25,meteohub,2013-05-02 23:39:00,
2013-05-02 19:43:00,75.7,69.8,29.84,North,0,2.0,2.0,82,0.00,,,3.25,meteohub,2013-05-02 23:43:00,
2013-05-02 19:44:00,75.7,69.8,29.84,East,90,2.0,2.0,82,0.00,,,3.25,meteohub,2013-05-02 23:44:00,
2013-05-02 19:46:00,75.7,69.8,29.85,North,0,1.0,2.0,82,0.00,,,3.25,meteohub,2013-05-02 23:46:00,
2013-05-02 19:47:00,75.7,69.8,29.85,North,0,1.0,2.0,82,0.00,,,3.25,meteohub,2013-05-02 23:47:00,
2013-05-02 19:48:00,75.7,69.8,29.85,NW,315,2.0,2.0,82,0.00,,,3.25,meteohub,2013-05-02 23:48:00,
2013-05-02 19:51:00,75.6,69.6,29.84,North,0,1.0,3.0,82,0.00,,,3.25,meteohub,2013-05-02 23:51:00,
2013-05-02 19:52:00,75.6,69.6,29.84,North,0,1.0,3.0,82,0.00,,,3.25,meteohub,2013-05-02 23:52:00,
2013-05-02 19:54:00,75.6,69.6,29.85,South,180,1.0,3.0,82,0.00,,,3.25,meteohub,2013-05-02 23:54:00,
2013-05-02 19:56:00,75.6,69.6,29.85,NW,315,2.0,3.0,82,0.01,,,3.26,meteohub,2013-05-02 23:56:00,
2013-05-02 19:57:00,75.4,69.4,29.85,West,270,1.0,3.0,82,0.01,,,3.26,meteohub,2013-05-02 23:57:00,
2013-05-02 19:58:00,75.4,69.4,29.85,NW,315,2.0,3.0,82,0.01,,,3.26,meteohub,2013-05-02 23:58:00,
2013-05-02 20:00:00,75.4,69.4,29.85,West,270,1.0,3.0,82,0.02,,,3.26,meteohub,2013-05-03 00:00:00,
2013-05-02 20:02:00,75.4,69.4,29.85,NW,315,2.0,3.0,82,0.02,,,3.26,meteohub,2013-05-03 00:02:00,
2013-05-02 20:04:00,75.4,69.4,29.86,North,0,0.0,3.0,82,0.02,,,3.26,meteohub,2013-05-03 00:04:00,
2013-05-02 20:05:00,75.2,69.3,29.86,NW,315,1.0,2.0,82,0.02,,,3.27,meteohub,2013-05-03 00:05:00,
2013-05-02 20:07:00,75.2,69.6,29.86,NE,45,1.0,2.0,83,0.02,,,3.27,meteohub,2013-05-03 00:07:00,
2013-05-02 20:08:00,75.2,69.6,29.86,North,0,1.0,2.0,83,0.02,,,3.27,meteohub,2013-05-03 00:08:00,
2013-05-02 20:12:00,75.0,69.8,29.86,North,0,1.0,2.0,84,0.02,,,3.27,meteohub,2013-05-03 00:12:00,
2013-05-02 20:17:00,74.8,69.6,29.86,North,0,1.0,2.0,84,0.02,,,3.27,meteohub,2013-05-03 00:17:00,
2013-05-02 20:18:00,74.8,69.6,29.86,North,0,0.0,2.0,84,0.02,,,3.27,meteohub,2013-05-03 00:18:00,
2013-05-02 20:22:00,74.7,69.8,29.86,North,0,0.0,1.0,85,0.02,,,3.27,meteohub,2013-05-03 00:22:00,
2013-05-02 20:23:00,74.5,69.6,29.86,South,180,0.0,1.0,85,0.02,,,3.27,meteohub,2013-05-03 00:23:00,
2013-05-02 20:24:00,74.5,69.6,29.86,South,180,0.0,1.0,85,0.02,,,3.27,meteohub,2013-05-03 00:24:00,
2013-05-02 20:25:00,74.5,69.6,29.86,NW,315,0.0,1.0,85,0.02,,,3.27,meteohub,2013-05-03 00:25:00,
2013-05-02 20:28:00,74.3,69.4,29.86,East,90,0.0,1.0,85,0.02,,,3.27,meteohub,2013-05-03 00:28:00,
2013-05-02 20:29:00,74.3,69.4,29.86,East,90,0.0,1.0,85,0.02,,,3.27,meteohub,2013-05-03 00:29:00,
2013-05-02 20:31:00,74.3,69.4,29.86,East,90,0.0,1.0,85,0.02,,,3.27,meteohub,2013-05-03 00:31:00,
2013-05-02 20:34:00,74.1,69.3,29.86,East,90,0.0,1.0,85,0.02,,,3.27,meteohub,2013-05-03 00:34:00,
2013-05-02 20:36:00,73.9,69.1,29.86,SW,225,0.0,0.0,85,0.02,,,3.27,meteohub,2013-05-03 00:36:00,
2013-05-02 20:37:00,73.9,69.1,29.86,SW,225,0.0,0.0,85,0.02,,,3.27,meteohub,2013-05-03 00:37:00,
2013-05-02 20:40:00,73.9,69.4,29.86,West,270,0.0,0.0,86,0.02,,,3.27,meteohub,2013-05-03 00:40:00,
2013-05-02 20:42:00,73.9,69.4,29.86,SW,225,0.0,0.0,86,0.02,,,3.27,meteohub,2013-05-03 00:42:00,
2013-05-02 20:43:00,73.8,69.3,29.86,SW,225,0.0,0.0,86,0.02,,,3.27,meteohub,2013-05-03 00:43:00,
2013-05-02 20:44:00,73.8,69.3,29.86,West,270,0.0,0.0,86,0.02,,,3.27,meteohub,2013-05-03 00:44:00,
2013-05-02 20:46:00,73.8,69.3,29.86,West,270,0.0,0.0,86,0.02,,,3.27,meteohub,2013-05-03 00:46:00,
2013-05-02 20:48:00,73.8,69.3,29.86,West,270,0.0,0.0,86,0.02,,,3.27,meteohub,2013-05-03 00:48:00,
2013-05-02 20:49:00,73.8,69.3,29.86,West,270,0.0,0.0,86,0.02,,,3.27,meteohub,2013-05-03 00:49:00,
2013-05-02 20:51:00,73.8,69.3,29.86,West,270,0.0,0.0,86,0.02,,,3.27,meteohub,2013-05-03 00:51:00,
2013-05-02 20:53:00,73.8,69.3,29.86,West,270,0.0,0.0,86,0.02,,,3.27,meteohub,2013-05-03 00:53:00,
2013-05-02 20:54:00,73.8,69.3,29.86,West,270,0.0,0.0,86,0.02,,,3.27,meteohub,2013-05-03 00:54:00,
2013-05-02 20:56:00,73.6,69.1,29.86,West,270,0.0,0.0,86,0.01,,,3.27,meteohub,2013-05-03 00:56:00,
2013-05-02 20:57:00,73.6,69.4,29.86,West,270,0.0,0.0,87,0.01,,,3.27,meteohub,2013-05-03 00:57:00,
2013-05-02 20:59:00,73.4,69.3,29.86,West,270,0.0,0.0,87,0.01,,,3.27,meteohub,2013-05-03 00:59:00,
2013-05-02 21:00:00,73.4,69.3,29.85,West,270,0.0,0.0,87,0.06,,,3.33,meteohub,2013-05-03 01:00:00,
2013-05-02 21:02:00,73.4,69.3,29.86,West,270,0.0,0.0,87,0.06,,,3.33,meteohub,2013-05-03 01:02:00,
2013-05-02 21:05:00,73.2,68.7,29.85,West,270,0.0,0.0,86,0.06,,,3.33,meteohub,2013-05-03 01:05:00,
2013-05-02 21:06:00,73.2,68.7,29.85,West,270,0.0,0.0,86,0.06,,,3.33,meteohub,2013-05-03 01:06:00,
2013-05-02 21:07:00,73.2,68.7,29.85,West,270,0.0,0.0,86,0.06,,,3.33,meteohub,2013-05-03 01:07:00,
2013-05-02 21:08:00,73.2,68.7,29.85,West,270,0.0,0.0,86,0.06,,,3.33,meteohub,2013-05-03 01:08:00,
2013-05-02 21:09:00,73.0,68.5,29.85,West,270,0.0,0.0,86,0.06,,,3.33,meteohub,2013-05-03 01:09:00,
2013-05-02 21:12:00,73.0,68.5,29.85,West,270,0.0,0.0,86,0.06,,,3.33,meteohub,2013-05-03 01:12:00,
2013-05-02 21:13:00,73.0,68.5,29.85,West,270,0.0,0.0,86,0.06,,,3.33,meteohub,2013-05-03 01:13:00,
2013-05-02 21:14:00,72.9,68.7,29.85,West,270,0.0,0.0,87,0.06,,,3.33,meteohub,2013-05-03 01:14:00,
2013-05-02 21:16:00,72.9,68.7,29.85,West,270,0.0,0.0,87,0.06,,,3.33,meteohub,2013-05-03 01:16:00,
2013-05-02 21:17:00,72.9,68.7,29.86,West,270,0.0,0.0,87,0.06,,,3.33,meteohub,2013-05-03 01:17:00,
2013-05-02 21:19:00,72.7,68.5,29.85,West,270,0.0,0.0,87,0.06,,,3.33,meteohub,2013-05-03 01:19:00,
2013-05-02 21:20:00,72.7,68.5,29.85,West,270,0.0,0.0,87,0.07,,,3.34,meteohub,2013-05-03 01:20:00,
2013-05-02 21:21:00,72.7,68.5,29.86,West,270,0.0,0.0,87,0.07,,,3.34,meteohub,2013-05-03 01:21:00,
2013-05-02 21:22:00,72.5,68.4,29.85,West,270,0.0,0.0,87,0.07,,,3.34,meteohub,2013-05-03 01:22:00,
2013-05-02 21:25:00,72.5,68.4,29.85,West,270,0.0,0.0,87,0.26,,,3.53,meteohub,2013-05-03 01:25:00,
2013-05-02 21:26:00,72.5,68.4,29.86,West,270,0.0,0.0,87,0.26,,,3.53,meteohub,2013-05-03 01:26:00,
2013-05-02 21:27:00,72.5,68.4,29.86,West,270,0.0,0.0,87,0.26,,,3.53,meteohub,2013-05-03 01:27:00,
2013-05-02 21:29:00,72.3,68.5,29.86,West,270,0.0,0.0,88,0.26,,,3.53,meteohub,2013-05-03 01:29:00,
2013-05-02 21:30:00,72.3,68.5,29.86,West,270,0.0,0.0,88,0.44,,,3.71,meteohub,2013-05-03 01:30:00,
2013-05-02 21:33:00,72.3,68.5,29.86,West,270,0.0,0.0,88,0.44,,,3.71,meteohub,2013-05-03 01:33:00,
2013-05-02 21:35:00,72.1,68.4,29.86,West,270,0.0,0.0,88,0.44,,,3.71,meteohub,2013-05-03 01:35:00,
2013-05-02 21:36:00,72.1,68.4,29.86,West,270,0.0,0.0,88,0.44,,,3.71,meteohub,2013-05-03 01:36:00,
2013-05-02 21:40:00,72.1,68.4,29.87,West,270,0.0,0.0,88,0.44,,,3.71,meteohub,2013-05-03 01:40:00,
2013-05-02 21:41:00,72.1,68.7,29.87,SE,135,0.0,0.0,89,0.44,,,3.71,meteohub,2013-05-03 01:41:00,
2013-05-02 21:42:00,72.1,68.7,29.87,NE,45,0.0,0.0,89,0.44,,,3.71,meteohub,2013-05-03 01:42:00,
2013-05-02 21:43:00,71.8,68.4,29.87,NE,45,1.0,0.0,89,0.44,,,3.71,meteohub,2013-05-03 01:43:00,
2013-05-02 21:46:00,71.8,68.4,29.87,SE,135,3.0,3.0,89,0.44,,,3.71,meteohub,2013-05-03 01:46:00,
2013-05-02 21:47:00,71.8,68.4,29.87,SE,135,3.0,3.0,89,0.44,,,3.71,meteohub,2013-05-03 01:47:00,
2013-05-02 21:49:00,71.8,68.7,29.87,North,0,1.0,1.0,90,0.44,,,3.71,meteohub,2013-05-03 01:49:00,
2013-05-02 21:51:00,72.1,69.1,29.86,NE,45,0.0,3.0,90,0.44,,,3.71,meteohub,2013-05-03 01:51:00,
2013-05-02 21:52:00,72.1,69.1,29.87,NE,45,0.0,3.0,90,0.44,,,3.71,meteohub,2013-05-03 01:52:00,
2013-05-02 21:57:00,72.1,69.1,29.86,NE,45,2.0,3.0,90,0.44,,,3.71,meteohub,2013-05-03 01:57:00,
2013-05-02 21:58:00,72.1,69.4,29.86,NW,315,2.0,3.0,91,0.44,,,3.71,meteohub,2013-05-03 01:58:00,
2013-05-02 22:01:00,72.1,69.4,29.86,East,90,2.0,3.0,91,0.38,,,3.71,meteohub,2013-05-03 02:01:00,
2013-05-02 22:03:00,72.1,69.4,29.86,NE,45,0.0,3.0,91,0.38,,,3.71,meteohub,2013-05-03 02:03:00,
2013-05-02 22:04:00,72.1,69.4,29.86,NE,45,0.0,3.0,91,0.38,,,3.71,meteohub,2013-05-03 02:04:00,
2013-05-02 22:05:00,72.1,69.4,29.86,North,0,0.0,3.0,91,0.38,,,3.71,meteohub,2013-05-03 02:05:00,
2013-05-02 22:07:00,72.1,69.4,29.86,NE,45,2.0,2.0,91,0.38,,,3.71,meteohub,2013-05-03 02:07:00,
2013-05-02 22:10:00,72.1,69.4,29.86,North,0,1.0,2.0,91,0.38,,,3.71,meteohub,2013-05-03 02:10:00,
2013-05-02 22:11:00,72.1,69.4,29.87,NE,45,0.0,2.0,91,0.38,,,3.71,meteohub,2013-05-03 02:11:00,
2013-05-02 22:12:00,72.1,69.4,29.87,NE,45,0.0,2.0,91,0.38,,,3.71,meteohub,2013-05-03 02:12:00,
2013-05-02 22:14:00,72.1,69.4,29.86,NE,45,1.0,2.0,91,0.38,,,3.71,meteohub,2013-05-03 02:14:00,
2013-05-02 22:15:00,72.1,69.4,29.86,NE,45,1.0,2.0,91,0.38,,,3.71,meteohub,2013-05-03 02:15:00,
2013-05-02 22:17:00,72.1,69.4,29.87,NE,45,2.0,2.0,91,0.38,,,3.71,meteohub,2013-05-03 02:17:00,
2013-05-02 22:19:00,72.1,69.6,29.87,SE,135,0.0,2.0,92,0.38,,,3.71,meteohub,2013-05-03 02:19:00,
2013-05-02 22:21:00,72.1,69.6,29.87,SE,135,0.0,2.0,92,0.37,,,3.71,meteohub,2013-05-03 02:21:00,
2013-05-02 22:22:00,72.1,69.6,29.87,North,0,0.0,2.0,92,0.37,,,3.71,meteohub,2013-05-03 02:22:00,
2013-05-02 22:24:00,72.1,69.6,29.87,East,90,2.0,2.0,92,0.37,,,3.71,meteohub,2013-05-03 02:24:00,
2013-05-02 22:26:00,72.1,69.6,29.87,North,0,1.0,2.0,92,0.01,,,3.72,meteohub,2013-05-03 02:26:00,
2013-05-02 22:29:00,72.1,69.6,29.87,NE,45,2.0,2.0,92,0.01,,,3.72,meteohub,2013-05-03 02:29:00,
2013-05-02 22:32:00,72.1,69.6,29.87,NE,45,2.0,3.0,92,0.01,,,3.72,meteohub,2013-05-03 02:32:00,
2013-05-02 22:34:00,72.1,69.6,29.87,East,90,2.0,3.0,92,0.01,,,3.72,meteohub,2013-05-03 02:34:00,
2013-05-02 22:35:00,72.1,69.6,29.87,East,90,2.0,3.0,92,0.01,,,3.72,meteohub,2013-05-03 02:35:00,
2013-05-02 22:37:00,71.8,69.3,29.87,NE,45,2.0,3.0,92,0.01,,,3.72,meteohub,2013-05-03 02:37:00,
2013-05-02 22:38:00,71.8,69.3,29.87,NE,45,2.0,3.0,92,0.01,,,3.72,meteohub,2013-05-03 02:38:00,
2013-05-02 22:40:00,71.8,69.3,29.87,East,90,2.0,3.0,92,0.01,,,3.72,meteohub,2013-05-03 02:40:00,
2013-05-02 22:42:00,71.8,69.3,29.87,NE,45,2.0,3.0,92,0.01,,,3.72,meteohub,2013-05-03 02:42:00,
2013-05-02 22:43:00,71.8,69.3,29.87,NE,45,2.0,3.0,92,0.01,,,3.72,meteohub,2013-05-03 02:43:00,
2013-05-02 22:45:00,71.8,69.6,29.88,NE,45,0.0,2.0,93,0.01,,,3.72,meteohub,2013-05-03 02:45:00,
2013-05-02 22:47:00,71.8,69.6,29.88,North,0,2.0,2.0,93,0.01,,,3.72,meteohub,2013-05-03 02:47:00,
2013-05-02 22:48:00,71.8,69.6,29.88,NE,45,2.0,2.0,93,0.01,,,3.72,meteohub,2013-05-03 02:48:00,
2013-05-02 22:52:00,71.8,69.6,29.88,East,90,2.0,2.0,93,0.01,,,3.72,meteohub,2013-05-03 02:52:00,
2013-05-02 22:53:00,71.8,69.6,29.88,South,180,3.0,3.0,93,0.01,,,3.72,meteohub,2013-05-03 02:53:00,
2013-05-02 22:54:00,71.8,69.6,29.88,NE,45,2.0,2.0,93,0.01,,,3.72,meteohub,2013-05-03 02:54:00,
2013-05-02 22:55:00,71.8,69.6,29.88,East,90,0.0,3.0,93,0.01,,,3.72,meteohub,2013-05-03 02:55:00,
2013-05-02 22:58:00,71.8,69.6,29.88,NE,45,2.0,3.0,93,0.01,,,3.72,meteohub,2013-05-03 02:58:00,
2013-05-02 22:59:00,71.8,69.6,29.88,NE,45,2.0,3.0,93,0.01,,,3.72,meteohub,2013-05-03 02:59:00,
2013-05-02 23:00:00,71.8,69.6,29.88,NE,45,1.0,3.0,93,0.01,,,3.72,meteohub,2013-05-03 03:00:00,
2013-05-02 23:05:00,71.8,69.6,29.88,NE,45,3.0,3.0,93,0.01,,,3.72,meteohub,2013-05-03 03:05:00,
2013-05-02 23:06:00,71.8,69.6,29.88,NE,45,2.0,3.0,93,0.01,,,3.72,meteohub,2013-05-03 03:06:00,
2013-05-02 23:07:00,71.8,69.6,29.88,NE,45,2.0,3.0,93,0.01,,,3.72,meteohub,2013-05-03 03:07:00,
2013-05-02 23:08:00,71.8,69.6,29.88,NE,45,0.0,3.0,93,0.01,,,3.72,meteohub,2013-05-03 03:08:00,
2013-05-02 23:10:00,71.8,69.6,29.88,NE,45,0.0,3.0,93,0.01,,,3.72,meteohub,2013-05-03 03:10:00,
2013-05-02 23:11:00,71.8,69.6,29.87,NE,45,1.0,3.0,93,0.01,,,3.72,meteohub,2013-05-03 03:11:00,
2013-05-02 23:12:00,71.8,69.6,29.87,NE,45,1.0,3.0,93,0.01,,,3.72,meteohub,2013-05-03 03:12:00,
2013-05-02 23:14:00,71.6,69.4,29.88,NE,45,0.0,3.0,93,0.01,,,3.72,meteohub,2013-05-03 03:14:00,
2013-05-02 23:16:00,71.6,69.4,29.88,NE,45,1.0,3.0,93,0.04,,,3.74,meteohub,2013-05-03 03:16:00,
2013-05-02 23:17:00,71.6,69.4,29.88,NE,45,1.0,3.0,93,0.04,,,3.74,meteohub,2013-05-03 03:17:00,
2013-05-02 23:20:00,71.6,69.4,29.87,NE,45,0.0,3.0,93,0.07,,,3.78,meteohub,2013-05-03 03:20:00,
2013-05-02 23:21:00,71.6,69.4,29.87,NE,45,0.0,3.0,93,0.07,,,3.78,meteohub,2013-05-03 03:21:00,
2013-05-02 23:24:00,71.6,69.4,29.87,NE,45,0.0,3.0,93,0.07,,,3.78,meteohub,2013-05-03 03:24:00,
2013-05-02 23:26:00,71.4,69.6,29.87,NE,45,0.0,1.0,94,0.12,,,3.84,meteohub,2013-05-03 03:26:00,
2013-05-02 23:27:00,71.4,69.6,29.87,NE,45,0.0,1.0,94,0.12,,,3.84,meteohub,2013-05-03 03:27:00,
2013-05-02 23:30:00,71.4,69.6,29.87,East,90,1.0,1.0,94,0.12,,,3.84,meteohub,2013-05-03 03:30:00,
2013-05-02 23:31:00,71.4,69.6,29.86,NE,45,0.0,1.0,94,0.12,,,3.84,meteohub,2013-05-03 03:31:00,
2013-05-02 23:32:00,71.4,69.6,29.86,NE,45,0.0,1.0,94,0.12,,,3.84,meteohub,2013-05-03 03:32:00,
2013-05-02 23:34:00,71.2,69.4,29.86,East,90,1.0,1.0,94,0.12,,,3.84,meteohub,2013-05-03 03:34:00,
2013-05-02 23:35:00,71.2,69.4,29.86,East,90,1.0,2.0,94,0.12,,,3.84,meteohub,2013-05-03 03:35:00,
2013-05-02 23:37:00,71.2,69.4,29.86,NE,45,1.0,2.0,94,0.12,,,3.84,meteohub,2013-05-03 03:37:00,
2013-05-02 23:40:00,71.2,69.4,29.87,NE,45,0.0,2.0,94,0.12,,,3.84,meteohub,2013-05-03 03:40:00,
2013-05-02 23:41:00,71.2,69.4,29.87,NE,45,0.0,2.0,94,0.12,,,3.84,meteohub,2013-05-03 03:41:00,
2013-05-02 23:42:00,71.2,69.4,29.87,NE,45,0.0,2.0,94,0.12,,,3.84,meteohub,2013-05-03 03:42:00,
2013-05-02 23:45:00,71.1,69.6,29.86,East,90,0.0,2.0,95,0.12,,,3.84,meteohub,2013-05-03 03:45:00,
2013-05-02 23:46:00,71.1,69.6,29.86,East,90,0.0,2.0,95,0.12,,,3.84,meteohub,2013-05-03 03:46:00,
2013-05-02 23:47:00,71.1,69.6,29.86,East,90,0.0,2.0,95,0.12,,,3.84,meteohub,2013-05-03 03:47:00,
2013-05-02 23:48:00,71.1,69.6,29.86,East,90,0.0,2.0,95,0.12,,,3.84,meteohub,2013-05-03 03:48:00,
2013-05-02 23:52:00,71.1,69.6,29.86,East,90,0.0,2.0,95,0.12,,,3.84,meteohub,2013-05-03 03:52:00,
2013-05-02 23:54:00,71.1,69.6,29.86,North,0,0.0,2.0,95,0.12,,,3.84,meteohub,2013-05-03 03:54:00,
2013-05-02 23:55:00,71.1,69.6,29.86,NE,45,0.0,2.0,95,0.12,,,3.84,meteohub,2013-05-03 03:55:00,
2013-05-02 23:57:00,71.1,69.6,29.86,NE,45,0.0,1.0,95,0.13,,,3.85,meteohub,2013-05-03 03:57:00,